<?xml version='1.0' encoding='UTF-8'?><gpx version="1.1" creator="JPX - https://github.com/jenetics/jpx" xmlns="http://www.topografix.com/GPX/1/1"><trk><trkseg><trkpt lat="51.04215207389619" lon="2.3785312489558583"><ele>5.0</ele><time>2026-04-06T16:42:54Z</time></trkpt><trkpt lat="51.04223049542217" lon="2.3785413594868476"><ele>5.0</ele><time>2026-04-06T16:42:59Z</time></trkpt><trkpt lat="51.042318914822935" lon="2.378478308003566"><ele>5.0</ele><time>2026-04-06T16:43:04Z</time></trkpt><trkpt lat="51.04237671331281" lon="2.378528631340773"><ele>5.0</ele><time>2026-04-06T16:43:06Z</time></trkpt><trkpt lat="51.04241628916395" lon="2.378608337635497"><ele>5.0</ele><time>2026-04-06T16:43:08Z</time></trkpt><trkpt lat="51.042465059413146" lon="2.378685812616926"><ele>5.0</ele><time>2026-04-06T16:43:10Z</time></trkpt><trkpt lat="51.04251379780368" lon="2.378804476353587"><ele>5.5</ele><time>2026-04-06T16:43:15Z</time></trkpt><trkpt lat="51.04255583964033" lon="2.3788975735838025"><ele>6.0</ele><time>2026-04-06T16:43:20Z</time></trkpt><trkpt lat="51.04261604047088" lon="2.379016345940259"><ele>6.5</ele><time>2026-04-06T16:43:24Z</time></trkpt><trkpt lat="51.04267769524458" lon="2.3790980439991434"><ele>7.0</ele><time>2026-04-06T16:43:27Z</time></trkpt><trkpt lat="51.042738206943206" lon="2.3792099268985254"><ele>7.499999999999999</ele><time>2026-04-06T16:43:30Z</time></trkpt><trkpt lat="51.04279850652731" lon="2.3792866074245866"><ele>8.0</ele><time>2026-04-06T16:43:32Z</time></trkpt><trkpt lat="51.042842659493154" lon="2.3793766089880144"><ele>7.999999999999999</ele><time>2026-04-06T16:43:33.999Z</time></trkpt><trkpt lat="51.042891398156385" lon="2.379451110836242"><ele>8.0</ele><time>2026-04-06T16:43:36.999Z</time></trkpt><trkpt lat="51.04294386045479" lon="2.3795104700826673"><ele>8.0</ele><time>2026-04-06T16:43:39.999Z</time></trkpt><trkpt lat="51.04298403689955" lon="2.379609007292126"><ele>8.0</ele><time>2026-04-06T16:43:43.999Z</time></trkpt><trkpt lat="51.0430509101162" lon="2.379710465476336"><ele>7.999999999999999</ele><time>2026-04-06T16:43:46.999Z</time></trkpt><trkpt lat="51.04312195120193" lon="2.3798099373261015"><ele>8.0</ele><time>2026-04-06T16:43:49.999Z</time></trkpt><trkpt lat="51.04315852997542" lon="2.3799188651489107"><ele>7.800000000000001</ele><time>2026-04-06T16:43:51.999Z</time></trkpt><trkpt lat="51.043176788458084" lon="2.3800210735268417"><ele>7.6000000000000005</ele><time>2026-04-06T16:43:53.999Z</time></trkpt><trkpt lat="51.04323063049032" lon="2.38011989712633"><ele>7.3999999999999995</ele><time>2026-04-06T16:43:56.999Z</time></trkpt><trkpt lat="51.04327911479115" lon="2.380191722600572"><ele>7.199999999999999</ele><time>2026-04-06T16:43:58.999Z</time></trkpt><trkpt lat="51.043319828793244" lon="2.3802756692944986"><ele>7.0</ele><time>2026-04-06T16:44:00.999Z</time></trkpt><trkpt lat="51.04350824222968" lon="2.380342897610265"><ele>6.857142857142857</ele><time>2026-04-06T16:44:35.999Z</time></trkpt><trkpt lat="51.0435646604078" lon="2.380433390610722"><ele>6.714285714285714</ele><time>2026-04-06T16:44:39Z</time></trkpt><trkpt lat="51.043614082692955" lon="2.380496138250435"><ele>6.571428571428571</ele><time>2026-04-06T16:44:41Z</time></trkpt><trkpt lat="51.04365966830267" lon="2.3805867468078854"><ele>6.428571428571429</ele><time>2026-04-06T16:44:44Z</time></trkpt><trkpt lat="51.04370443918138" lon="2.3806809454327595"><ele>6.285714285714286</ele><time>2026-04-06T16:44:47Z</time></trkpt><trkpt lat="51.043740938020406" lon="2.3807693330099267"><ele>6.142857142857142</ele><time>2026-04-06T16:44:51Z</time></trkpt><trkpt lat="51.04375479074528" lon="2.3808953807555273"><ele>6.0</ele><time>2026-04-06T16:45:21Z</time></trkpt><trkpt lat="51.043805919205745" lon="2.3809756003207814"><ele>6.0</ele><time>2026-04-06T16:45:24Z</time></trkpt><trkpt lat="51.04385772073708" lon="2.3810722783673914"><ele>6.0</ele><time>2026-04-06T16:45:27Z</time></trkpt><trkpt lat="51.043910740736436" lon="2.3811728496094697"><ele>6.0</ele><time>2026-04-06T16:45:31Z</time></trkpt><trkpt lat="51.04396170099456" lon="2.3812513567400853"><ele>6.0</ele><time>2026-04-06T16:45:33.999Z</time></trkpt><trkpt lat="51.04401233529654" lon="2.381363608938907"><ele>6.0</ele><time>2026-04-06T16:45:36.999Z</time></trkpt><trkpt lat="51.04406575492494" lon="2.3814700323994447"><ele>6.0</ele><time>2026-04-06T16:45:39.999Z</time></trkpt><trkpt lat="51.04409144251443" lon="2.3815924656402667"><ele>6.0</ele><time>2026-04-06T16:45:42.999Z</time></trkpt><trkpt lat="51.044064096210775" lon="2.3817197143626996"><ele>6.0</ele><time>2026-04-06T16:45:45.999Z</time></trkpt><trkpt lat="51.044074166733864" lon="2.381852408096028"><ele>6.0</ele><time>2026-04-06T16:45:48.999Z</time></trkpt><trkpt lat="51.04403516238125" lon="2.381948929513414"><ele>6.0</ele><time>2026-04-06T16:45:50.999Z</time></trkpt><trkpt lat="51.0439757501008" lon="2.3820115424118855"><ele>6.0</ele><time>2026-04-06T16:45:52.999Z</time></trkpt><trkpt lat="51.04391704275911" lon="2.382069662746569"><ele>6.0</ele><time>2026-04-06T16:45:54.999Z</time></trkpt><trkpt lat="51.04384395826156" lon="2.382134845450031"><ele>6.166666666666667</ele><time>2026-04-06T16:45:57.999Z</time></trkpt><trkpt lat="51.04378414297513" lon="2.3822181911458173"><ele>6.333333333333334</ele><time>2026-04-06T16:46:00.999Z</time></trkpt><trkpt lat="51.04372927490541" lon="2.3822760897036797"><ele>6.5</ele><time>2026-04-06T16:46:02.999Z</time></trkpt><trkpt lat="51.043670176936075" lon="2.38232487786352"><ele>6.666666666666667</ele><time>2026-04-06T16:46:05.999Z</time></trkpt><trkpt lat="51.043597375412304" lon="2.3824065232256424"><ele>6.833333333333334</ele><time>2026-04-06T16:46:09.999Z</time></trkpt><trkpt lat="51.043556531167376" lon="2.3825367579162777"><ele>7.0</ele><time>2026-04-06T16:46:12.999Z</time></trkpt><trkpt lat="51.043530458342595" lon="2.3826782417517696"><ele>7.000000000000001</ele><time>2026-04-06T16:46:15.999Z</time></trkpt><trkpt lat="51.04349658068028" lon="2.3827872170314763"><ele>7.0</ele><time>2026-04-06T16:46:18.999Z</time></trkpt><trkpt lat="51.04346785647689" lon="2.3828805145231353"><ele>7.0</ele><time>2026-04-06T16:46:21.999Z</time></trkpt><trkpt lat="51.04342585469101" lon="2.3829938773824666"><ele>7.0</ele><time>2026-04-06T16:46:24.999Z</time></trkpt><trkpt lat="51.04347274354457" lon="2.3830925495063697"><ele>7.000000000000001</ele><time>2026-04-06T16:46:26.999Z</time></trkpt><trkpt lat="51.043541487708985" lon="2.383178269314663"><ele>7.0</ele><time>2026-04-06T16:46:29.999Z</time></trkpt><trkpt lat="51.043592575619094" lon="2.3832611419246246"><ele>7.0</ele><time>2026-04-06T16:46:32.999Z</time></trkpt><trkpt lat="51.04377457564162" lon="2.3832823109043964"><ele>6.999999999999999</ele><time>2026-04-06T16:46:41.999Z</time></trkpt><trkpt lat="51.04385932909578" lon="2.3833198222563774"><ele>6.999999999999999</ele><time>2026-04-06T16:46:46Z</time></trkpt><trkpt lat="51.043932041882094" lon="2.3833566932435404"><ele>7.0</ele><time>2026-04-06T16:46:49Z</time></trkpt><trkpt lat="51.0439928406689" lon="2.3834105430040573"><ele>7.0</ele><time>2026-04-06T16:46:52Z</time></trkpt><trkpt lat="51.04405125753223" lon="2.3835100985365054"><ele>7.000000000000001</ele><time>2026-04-06T16:46:55Z</time></trkpt><trkpt lat="51.04411234515008" lon="2.383602078584359"><ele>7.0</ele><time>2026-04-06T16:46:58Z</time></trkpt><trkpt lat="51.04415890227769" lon="2.38367064539893"><ele>7.0</ele><time>2026-04-06T16:47:00Z</time></trkpt><trkpt lat="51.04423144693804" lon="2.3837595607601116"><ele>7.0</ele><time>2026-04-06T16:47:03Z</time></trkpt><trkpt lat="51.04428066789953" lon="2.3838228316935375"><ele>7.000000000000001</ele><time>2026-04-06T16:47:05Z</time></trkpt><trkpt lat="51.04435534259873" lon="2.383871356963433"><ele>7.0</ele><time>2026-04-06T16:47:08Z</time></trkpt><trkpt lat="51.04441849343395" lon="2.3839196861308793"><ele>7.0</ele><time>2026-04-06T16:47:11Z</time></trkpt><trkpt lat="51.04447576148283" lon="2.383967117623254"><ele>7.0</ele><time>2026-04-06T16:47:16Z</time></trkpt><trkpt lat="51.04447501800885" lon="2.3838575499550907"><ele>7.0</ele><time>2026-04-06T16:47:19Z</time></trkpt><trkpt lat="51.04449792903992" lon="2.383758992040673"><ele>7.0</ele><time>2026-04-06T16:49:23Z</time></trkpt><trkpt lat="51.04458389759151" lon="2.383723504071534"><ele>7.0</ele><time>2026-04-06T16:49:31Z</time></trkpt><trkpt lat="51.04467018175637" lon="2.3837751099927487"><ele>7.0</ele><time>2026-04-06T16:50:02Z</time></trkpt><trkpt lat="51.04467980145915" lon="2.383875067720372"><ele>7.0</ele><time>2026-04-06T16:50:44.999Z</time></trkpt><trkpt lat="51.04464234303543" lon="2.3839584830479903"><ele>7.0</ele><time>2026-04-06T16:50:51.999Z</time></trkpt><trkpt lat="51.04462635280257" lon="2.384062697914539"><ele>7.0</ele><time>2026-04-06T16:50:58.001Z</time></trkpt><trkpt lat="51.044607203005654" lon="2.3841622759078924"><ele>7.0</ele><time>2026-04-06T16:51:01.001Z</time></trkpt><trkpt lat="51.0445974523772" lon="2.384279277807996"><ele>7.0</ele><time>2026-04-06T16:51:04.001Z</time></trkpt><trkpt lat="51.04463397983879" lon="2.384361853914255"><ele>7.0</ele><time>2026-04-06T16:51:07.001Z</time></trkpt><trkpt lat="51.0446572402481" lon="2.3844714329052246"><ele>7.0</ele><time>2026-04-06T16:51:12Z</time></trkpt><trkpt lat="51.0447031338324" lon="2.384556209141457"><ele>7.0</ele><time>2026-04-06T16:51:16Z</time></trkpt><trkpt lat="51.04473893976283" lon="2.3846525177038203"><ele>7.000000000000001</ele><time>2026-04-06T16:51:20Z</time></trkpt><trkpt lat="51.04479587477892" lon="2.3847527507701898"><ele>7.0</ele><time>2026-04-06T16:51:24Z</time></trkpt><trkpt lat="51.04483778298362" lon="2.384865543003039"><ele>7.0</ele><time>2026-04-06T16:51:27Z</time></trkpt><trkpt lat="51.044894316856" lon="2.384959789314246"><ele>7.0</ele><time>2026-04-06T16:51:31Z</time></trkpt><trkpt lat="51.04495320791661" lon="2.3850517511234863"><ele>7.000000000000001</ele><time>2026-04-06T16:51:35Z</time></trkpt><trkpt lat="51.04500913791829" lon="2.385132490592116"><ele>7.0</ele><time>2026-04-06T16:51:40Z</time></trkpt><trkpt lat="51.04505975430358" lon="2.3852152177471795"><ele>6.857142857142857</ele><time>2026-04-06T16:51:43Z</time></trkpt><trkpt lat="51.04510114832799" lon="2.3852953871357725"><ele>6.714285714285714</ele><time>2026-04-06T16:51:46Z</time></trkpt><trkpt lat="51.04514695765275" lon="2.385384235824225"><ele>6.571428571428571</ele><time>2026-04-06T16:51:50Z</time></trkpt><trkpt lat="51.04519290878553" lon="2.3854700784730807"><ele>6.428571428571429</ele><time>2026-04-06T16:51:54Z</time></trkpt><trkpt lat="51.045254468854" lon="2.385543009717015"><ele>6.285714285714286</ele><time>2026-04-06T16:51:59Z</time></trkpt><trkpt lat="51.04530987891803" lon="2.385591229000856"><ele>6.142857142857142</ele><time>2026-04-06T16:52:04Z</time></trkpt><trkpt lat="51.04523452033545" lon="2.385640609538697"><ele>6.0</ele><time>2026-04-06T16:52:08.999Z</time></trkpt><trkpt lat="51.045159901205146" lon="2.3857014573757946"><ele>5.999999999999999</ele><time>2026-04-06T16:52:12.999Z</time></trkpt><trkpt lat="51.04509802093947" lon="2.3857493817076727"><ele>6.0</ele><time>2026-04-06T16:52:15.999Z</time></trkpt><trkpt lat="51.04504446131555" lon="2.3858160524751972"><ele>6.0</ele><time>2026-04-06T16:52:18.999Z</time></trkpt><trkpt lat="51.04497634730602" lon="2.385854650394586"><ele>6.0</ele><time>2026-04-06T16:52:21.999Z</time></trkpt><trkpt lat="51.044907962466915" lon="2.385907892096849"><ele>6.0</ele><time>2026-04-06T16:52:24.999Z</time></trkpt><trkpt lat="51.04483253826804" lon="2.38594435029174"><ele>5.999999999999999</ele><time>2026-04-06T16:52:27.999Z</time></trkpt><trkpt lat="51.04476690164998" lon="2.3859838461559115"><ele>6.0</ele><time>2026-04-06T16:52:30.999Z</time></trkpt><trkpt lat="51.04470521549283" lon="2.386004727854109"><ele>5.833333333333333</ele><time>2026-04-06T16:52:33.999Z</time></trkpt><trkpt lat="51.044642952699206" lon="2.3860408659166206"><ele>5.666666666666667</ele><time>2026-04-06T16:52:37.999Z</time></trkpt><trkpt lat="51.044572195441894" lon="2.386057368530745"><ele>5.5</ele><time>2026-04-06T16:52:40.999Z</time></trkpt><trkpt lat="51.044486826360895" lon="2.386079901152788"><ele>5.333333333333334</ele><time>2026-04-06T16:52:43.999Z</time></trkpt><trkpt lat="51.04441281481963" lon="2.3861304990587984"><ele>5.166666666666667</ele><time>2026-04-06T16:52:46.999Z</time></trkpt><trkpt lat="51.044346619087314" lon="2.3861705280558048"><ele>5.0</ele><time>2026-04-06T16:52:49.999Z</time></trkpt><trkpt lat="51.044271593165085" lon="2.3862190281506717"><ele>5.0</ele><time>2026-04-06T16:53:11Z</time></trkpt><trkpt lat="51.044212100094065" lon="2.3862645931825033"><ele>5.0</ele><time>2026-04-06T16:53:13Z</time></trkpt><trkpt lat="51.04414534428509" lon="2.386319488279381"><ele>5.0</ele><time>2026-04-06T16:53:16Z</time></trkpt><trkpt lat="51.04407368497933" lon="2.3863678763341185"><ele>5.0</ele><time>2026-04-06T16:53:20Z</time></trkpt><trkpt lat="51.044008354018004" lon="2.386423519724138"><ele>5.0</ele><time>2026-04-06T16:53:25Z</time></trkpt><trkpt lat="51.04393708530987" lon="2.386458906386602"><ele>5.0</ele><time>2026-04-06T16:53:28Z</time></trkpt><trkpt lat="51.04387755766445" lon="2.3864980717121798"><ele>5.0</ele><time>2026-04-06T16:53:30Z</time></trkpt><trkpt lat="51.043799955601514" lon="2.386547506386029"><ele>5.0</ele><time>2026-04-06T16:53:33Z</time></trkpt><trkpt lat="51.04374137896804" lon="2.3865884360187946"><ele>5.0</ele><time>2026-04-06T16:53:36Z</time></trkpt><trkpt lat="51.0436670943374" lon="2.386632029139763"><ele>5.0</ele><time>2026-04-06T16:53:39Z</time></trkpt><trkpt lat="51.04359432416043" lon="2.386665696136993"><ele>5.0</ele><time>2026-04-06T16:53:41Z</time></trkpt><trkpt lat="51.04351750307729" lon="2.3866858468313583"><ele>5.0</ele><time>2026-04-06T16:53:43Z</time></trkpt><trkpt lat="51.0434440541267" lon="2.386705283036049"><ele>5.0</ele><time>2026-04-06T16:53:45Z</time></trkpt><trkpt lat="51.04337330173862" lon="2.3867308701408545"><ele>5.0</ele><time>2026-04-06T16:53:47Z</time></trkpt><trkpt lat="51.043305444794285" lon="2.386748965978293"><ele>4.857142857142857</ele><time>2026-04-06T16:53:49Z</time></trkpt><trkpt lat="51.04324324008953" lon="2.3867695548066927"><ele>4.714285714285714</ele><time>2026-04-06T16:53:51Z</time></trkpt><trkpt lat="51.04313817891353" lon="2.3867857985246332"><ele>4.571428571428571</ele><time>2026-04-06T16:53:54Z</time></trkpt><trkpt lat="51.04306917247875" lon="2.386787441605782"><ele>4.428571428571429</ele><time>2026-04-06T16:53:56Z</time></trkpt><trkpt lat="51.043002043557046" lon="2.3868198238101357"><ele>4.285714285714286</ele><time>2026-04-06T16:53:58Z</time></trkpt><trkpt lat="51.04293714949101" lon="2.3868554478781774"><ele>4.142857142857142</ele><time>2026-04-06T16:54:00Z</time></trkpt><trkpt lat="51.042876732799286" lon="2.3868887635509406"><ele>4.0</ele><time>2026-04-06T16:54:02Z</time></trkpt><trkpt lat="51.042789417795774" lon="2.3869226206856524"><ele>3.9999999999999996</ele><time>2026-04-06T16:54:04.999Z</time></trkpt><trkpt lat="51.04270734139319" lon="2.3869405303151736"><ele>4.0</ele><time>2026-04-06T16:54:07.999Z</time></trkpt><trkpt lat="51.042615777124496" lon="2.38694252043518"><ele>4.0</ele><time>2026-04-06T16:54:10.999Z</time></trkpt><trkpt lat="51.042540813223454" lon="2.386951058991961"><ele>4.0</ele><time>2026-04-06T16:54:13.999Z</time></trkpt><trkpt lat="51.04246215570275" lon="2.386950285498024"><ele>3.9999999999999996</ele><time>2026-04-06T16:54:17.999Z</time></trkpt><trkpt lat="51.04239461827556" lon="2.3869654258957786"><ele>4.0</ele><time>2026-04-06T16:54:20.999Z</time></trkpt><trkpt lat="51.04231119936443" lon="2.3869713514398088"><ele>4.0</ele><time>2026-04-06T16:54:23.999Z</time></trkpt><trkpt lat="51.042238510987644" lon="2.3869621335066666"><ele>3.9999999999999996</ele><time>2026-04-06T16:54:26.999Z</time></trkpt><trkpt lat="51.042173763560065" lon="2.3869699844120538"><ele>4.0</ele><time>2026-04-06T16:54:29.999Z</time></trkpt><trkpt lat="51.04209848889133" lon="2.3869783566897085"><ele>4.0</ele><time>2026-04-06T16:54:32.999Z</time></trkpt><trkpt lat="51.042025980130475" lon="2.386972225718014"><ele>3.9999999999999996</ele><time>2026-04-06T16:54:35.999Z</time></trkpt><trkpt lat="51.04195877536137" lon="2.3869809537955757"><ele>4.0</ele><time>2026-04-06T16:54:39.999Z</time></trkpt><trkpt lat="51.04188945544366" lon="2.3869837437810024"><ele>4.0</ele><time>2026-04-06T16:54:44.999Z</time></trkpt><trkpt lat="51.04182468516344" lon="2.386988190418371"><ele>3.9999999999999996</ele><time>2026-04-06T16:54:48.999Z</time></trkpt><trkpt lat="51.04174506951645" lon="2.3869836804734725"><ele>4.0</ele><time>2026-04-06T16:54:53.999Z</time></trkpt><trkpt lat="51.041680267211476" lon="2.3870059049691137"><ele>4.0</ele><time>2026-04-06T16:54:56.999Z</time></trkpt><trkpt lat="51.041603605155174" lon="2.3870138423396305"><ele>4.0</ele><time>2026-04-06T16:55:00.999Z</time></trkpt><trkpt lat="51.04153487591208" lon="2.387014857492465"><ele>3.9999999999999996</ele><time>2026-04-06T16:55:02.999Z</time></trkpt><trkpt lat="51.04144127742095" lon="2.3869985025489266"><ele>4.0</ele><time>2026-04-06T16:55:05.999Z</time></trkpt><trkpt lat="51.041354293893775" lon="2.3869977752258653"><ele>4.0</ele><time>2026-04-06T16:55:09Z</time></trkpt><trkpt lat="51.041269487748785" lon="2.3869969764702548"><ele>3.9999999999999996</ele><time>2026-04-06T16:55:12Z</time></trkpt><trkpt lat="51.04119663356034" lon="2.3869564327567288"><ele>4.0</ele><time>2026-04-06T16:55:15Z</time></trkpt><trkpt lat="51.04113916254481" lon="2.3869057011980015"><ele>4.0</ele><time>2026-04-06T16:55:32Z</time></trkpt><trkpt lat="51.04107235581897" lon="2.3869161199527"><ele>3.9999999999999996</ele><time>2026-04-06T16:55:40Z</time></trkpt><trkpt lat="51.04099662871411" lon="2.3869684878194155"><ele>4.0</ele><time>2026-04-06T16:55:43Z</time></trkpt><trkpt lat="51.0409645479182" lon="2.387064921086241"><ele>4.0</ele><time>2026-04-06T16:55:45Z</time></trkpt><trkpt lat="51.040956548671794" lon="2.387208463510987"><ele>5.0</ele><time>2026-04-06T16:55:48Z</time></trkpt><trkpt lat="51.04095772608531" lon="2.387326949748267"><ele>6.0</ele><time>2026-04-06T16:55:50Z</time></trkpt><trkpt lat="51.04097019370095" lon="2.3874773407884122"><ele>7.0</ele><time>2026-04-06T16:55:52Z</time></trkpt><trkpt lat="51.04097119216036" lon="2.3876530725099454"><ele>8.0</ele><time>2026-04-06T16:55:54Z</time></trkpt><trkpt lat="51.040979020458124" lon="2.387797363894168"><ele>9.0</ele><time>2026-04-06T16:55:56Z</time></trkpt><trkpt lat="51.04098654922516" lon="2.3879306415901254"><ele>9.2</ele><time>2026-04-06T16:55:58Z</time></trkpt><trkpt lat="51.04101520473779" lon="2.388117354267828"><ele>9.4</ele><time>2026-04-06T16:56:00Z</time></trkpt><trkpt lat="51.04100937565097" lon="2.3882207011045313"><ele>9.6</ele><time>2026-04-06T16:56:01Z</time></trkpt><trkpt lat="51.04100686466523" lon="2.388396703024821"><ele>9.8</ele><time>2026-04-06T16:56:03Z</time></trkpt><trkpt lat="51.0410263110151" lon="2.388563056618944"><ele>10.0</ele><time>2026-04-06T16:56:05Z</time></trkpt><trkpt lat="51.04102920732702" lon="2.3887187940153707"><ele>10.0</ele><time>2026-04-06T16:56:06.999Z</time></trkpt><trkpt lat="51.04103880205714" lon="2.3888519798437673"><ele>10.0</ele><time>2026-04-06T16:56:08.999Z</time></trkpt><trkpt lat="51.04106695638552" lon="2.3889830038266866"><ele>10.0</ele><time>2026-04-06T16:56:10.999Z</time></trkpt><trkpt lat="51.04107511209459" lon="2.3890886413352934"><ele>10.0</ele><time>2026-04-06T16:56:12.999Z</time></trkpt><trkpt lat="51.04109361091682" lon="2.3891997661215814"><ele>10.0</ele><time>2026-04-06T16:56:14.999Z</time></trkpt><trkpt lat="51.04109673228586" lon="2.3893041950902365"><ele>10.0</ele><time>2026-04-06T16:56:16.999Z</time></trkpt><trkpt lat="51.04110098256221" lon="2.389419231914614"><ele>10.0</ele><time>2026-04-06T16:56:18.999Z</time></trkpt><trkpt lat="51.04112336974796" lon="2.3895351961155726"><ele>9.666666666666668</ele><time>2026-04-06T16:56:20.999Z</time></trkpt><trkpt lat="51.04114059795748" lon="2.3896910290504416"><ele>9.333333333333334</ele><time>2026-04-06T16:56:22.999Z</time></trkpt><trkpt lat="51.041176987626905" lon="2.3898139967554806"><ele>9.0</ele><time>2026-04-06T16:56:24.999Z</time></trkpt><trkpt lat="51.04122405161242" lon="2.389941575806069"><ele>8.666666666666666</ele><time>2026-04-06T16:56:26.999Z</time></trkpt><trkpt lat="51.041259826034576" lon="2.3900808449858464"><ele>8.333333333333332</ele><time>2026-04-06T16:56:28.999Z</time></trkpt><trkpt lat="51.041295308887456" lon="2.390186627567004"><ele>8.0</ele><time>2026-04-06T16:56:30.999Z</time></trkpt><trkpt lat="51.041310667092986" lon="2.3902909344708414"><ele>7.999999999999999</ele><time>2026-04-06T16:56:32.999Z</time></trkpt><trkpt lat="51.041346217493775" lon="2.3904314657085"><ele>8.0</ele><time>2026-04-06T16:56:34.999Z</time></trkpt><trkpt lat="51.04139373508662" lon="2.390559823371609"><ele>8.0</ele><time>2026-04-06T16:56:36.999Z</time></trkpt><trkpt lat="51.0414296901956" lon="2.3906761461479884"><ele>8.0</ele><time>2026-04-06T16:56:38.999Z</time></trkpt><trkpt lat="51.0414557075995" lon="2.390787279137437"><ele>7.999999999999999</ele><time>2026-04-06T16:56:40.999Z</time></trkpt><trkpt lat="51.041485606438826" lon="2.390892905196455"><ele>8.0</ele><time>2026-04-06T16:56:42.999Z</time></trkpt><trkpt lat="51.04150851458738" lon="2.3909919504837225"><ele>7.999999999999999</ele><time>2026-04-06T16:56:44.999Z</time></trkpt><trkpt lat="51.04153779347811" lon="2.3911305223442745"><ele>8.0</ele><time>2026-04-06T16:56:47.999Z</time></trkpt><trkpt lat="51.04156298022508" lon="2.3912348526125937"><ele>8.0</ele><time>2026-04-06T16:56:49.999Z</time></trkpt><trkpt lat="51.04159109341089" lon="2.3913425734159577"><ele>8.0</ele><time>2026-04-06T16:56:51.999Z</time></trkpt><trkpt lat="51.04161389450334" lon="2.3914501460356195"><ele>7.999999999999999</ele><time>2026-04-06T16:56:53.999Z</time></trkpt><trkpt lat="51.04163739107329" lon="2.3915743488132257"><ele>8.0</ele><time>2026-04-06T16:56:55.999Z</time></trkpt><trkpt lat="51.04167373894877" lon="2.391693545253995"><ele>7.999999999999999</ele><time>2026-04-06T16:56:57.999Z</time></trkpt><trkpt lat="51.041694693851426" lon="2.3918042005899163"><ele>8.0</ele><time>2026-04-06T16:56:59.999Z</time></trkpt><trkpt lat="51.04172053433454" lon="2.391938430620657"><ele>8.0</ele><time>2026-04-06T16:57:01.999Z</time></trkpt><trkpt lat="51.04172812998835" lon="2.3920494933036065"><ele>8.0</ele><time>2026-04-06T16:57:04.999Z</time></trkpt><trkpt lat="51.04175512443026" lon="2.392151463940423"><ele>7.999999999999999</ele><time>2026-04-06T16:57:05.999Z</time></trkpt><trkpt lat="51.04178748797983" lon="2.3922672592838476"><ele>8.0</ele><time>2026-04-06T16:57:07.999Z</time></trkpt><trkpt lat="51.041849948576306" lon="2.392431903151223"><ele>8.0</ele><time>2026-04-06T16:57:09.999Z</time></trkpt><trkpt lat="51.04190099835905" lon="2.3926056879823823"><ele>8.0</ele><time>2026-04-06T16:57:11.999Z</time></trkpt><trkpt lat="51.04195778449413" lon="2.3928015138095535"><ele>8.0</ele><time>2026-04-06T16:57:13.999Z</time></trkpt><trkpt lat="51.04198153770332" lon="2.392937712899897"><ele>8.0</ele><time>2026-04-06T16:57:16Z</time></trkpt><trkpt lat="51.041983194993186" lon="2.3930543966183797"><ele>8.0</ele><time>2026-04-06T16:57:18Z</time></trkpt><trkpt lat="51.04202300302638" lon="2.3931850340379395"><ele>7.999999999999999</ele><time>2026-04-06T16:57:20Z</time></trkpt><trkpt lat="51.04205825892115" lon="2.393313047944918"><ele>8.0</ele><time>2026-04-06T16:57:22Z</time></trkpt><trkpt lat="51.04209932133707" lon="2.3934483143987704"><ele>8.0</ele><time>2026-04-06T16:57:24Z</time></trkpt><trkpt lat="51.04213543747783" lon="2.3935773214765756"><ele>8.0</ele><time>2026-04-06T16:57:26Z</time></trkpt><trkpt lat="51.042171003079204" lon="2.393706733187185"><ele>7.999999999999999</ele><time>2026-04-06T16:57:28Z</time></trkpt><trkpt lat="51.04217801693425" lon="2.3938383221253785"><ele>8.0</ele><time>2026-04-06T16:57:30Z</time></trkpt><trkpt lat="51.04219931483615" lon="2.3939727452972805"><ele>8.0</ele><time>2026-04-06T16:57:32Z</time></trkpt><trkpt lat="51.04223780401219" lon="2.394110453691553"><ele>8.0</ele><time>2026-04-06T16:57:34Z</time></trkpt><trkpt lat="51.0422731180965" lon="2.394241616249377"><ele>8.0</ele><time>2026-04-06T16:57:36Z</time></trkpt><trkpt lat="51.042329908244156" lon="2.3943443492023317"><ele>8.0</ele><time>2026-04-06T16:57:38Z</time></trkpt><trkpt lat="51.0423643302504" lon="2.394468350304378"><ele>8.0</ele><time>2026-04-06T16:57:40Z</time></trkpt><trkpt lat="51.042417469929575" lon="2.394592254809817"><ele>7.999999999999999</ele><time>2026-04-06T16:57:42Z</time></trkpt><trkpt lat="51.042439966277286" lon="2.394715014041227"><ele>8.0</ele><time>2026-04-06T16:57:44Z</time></trkpt><trkpt lat="51.042463695475604" lon="2.3948223691835344"><ele>8.0</ele><time>2026-04-06T16:57:46Z</time></trkpt><trkpt lat="51.04249895240613" lon="2.3949426522887203"><ele>8.0</ele><time>2026-04-06T16:57:48Z</time></trkpt><trkpt lat="51.042520502667735" lon="2.395057561509539"><ele>7.999999999999999</ele><time>2026-04-06T16:57:50Z</time></trkpt><trkpt lat="51.04255958622382" lon="2.3952052785639766"><ele>8.0</ele><time>2026-04-06T16:57:53Z</time></trkpt><trkpt lat="51.04258615026136" lon="2.395311530418469"><ele>7.999999999999999</ele><time>2026-04-06T16:57:55Z</time></trkpt><trkpt lat="51.042610733442224" lon="2.395417025867666"><ele>8.0</ele><time>2026-04-06T16:57:57Z</time></trkpt><trkpt lat="51.04265294733535" lon="2.3955212696164025"><ele>8.0</ele><time>2026-04-06T16:57:59Z</time></trkpt><trkpt lat="51.04270000662628" lon="2.395645508262834"><ele>8.0</ele><time>2026-04-06T16:58:01Z</time></trkpt><trkpt lat="51.04272269915543" lon="2.3957947760512073"><ele>7.999999999999999</ele><time>2026-04-06T16:58:03Z</time></trkpt><trkpt lat="51.04275632287444" lon="2.395925043685835"><ele>8.0</ele><time>2026-04-06T16:58:05Z</time></trkpt><trkpt lat="51.04278735609263" lon="2.396061268012857"><ele>7.800000000000001</ele><time>2026-04-06T16:58:07Z</time></trkpt><trkpt lat="51.04280966181856" lon="2.396194093571609"><ele>7.6000000000000005</ele><time>2026-04-06T16:58:09Z</time></trkpt><trkpt lat="51.04284746381501" lon="2.3963289875889817"><ele>7.3999999999999995</ele><time>2026-04-06T16:58:10.999Z</time></trkpt><trkpt lat="51.0428793567299" lon="2.396486935068521"><ele>7.199999999999999</ele><time>2026-04-06T16:58:12.999Z</time></trkpt><trkpt lat="51.042917922161784" lon="2.3966145429631687"><ele>7.0</ele><time>2026-04-06T16:58:14.999Z</time></trkpt><trkpt lat="51.04294131176579" lon="2.3967537919937287"><ele>7.000000000000001</ele><time>2026-04-06T16:58:16.999Z</time></trkpt><trkpt lat="51.04297255903537" lon="2.396885535642794"><ele>7.0</ele><time>2026-04-06T16:58:18.999Z</time></trkpt><trkpt lat="51.0429983343933" lon="2.3970243497350254"><ele>7.0</ele><time>2026-04-06T16:58:20.999Z</time></trkpt><trkpt lat="51.04301261208367" lon="2.397169853567253"><ele>7.0</ele><time>2026-04-06T16:58:22.999Z</time></trkpt><trkpt lat="51.04304910252709" lon="2.397292804938064"><ele>7.000000000000001</ele><time>2026-04-06T16:58:24.999Z</time></trkpt><trkpt lat="51.04307063079949" lon="2.397428692329693"><ele>7.0</ele><time>2026-04-06T16:58:26.999Z</time></trkpt><trkpt lat="51.043084776407774" lon="2.397560219679189"><ele>7.166666666666667</ele><time>2026-04-06T16:58:28.999Z</time></trkpt><trkpt lat="51.04312218559563" lon="2.397681971436742"><ele>7.333333333333334</ele><time>2026-04-06T16:58:30.999Z</time></trkpt><trkpt lat="51.04317524870991" lon="2.39780865212466"><ele>7.5</ele><time>2026-04-06T16:58:32.999Z</time></trkpt><trkpt lat="51.043211071507834" lon="2.3979321869484793"><ele>7.666666666666666</ele><time>2026-04-06T16:58:34.999Z</time></trkpt><trkpt lat="51.04324281852696" lon="2.3980601406503754"><ele>7.833333333333333</ele><time>2026-04-06T16:58:36.999Z</time></trkpt><trkpt lat="51.04327290958475" lon="2.398168042660308"><ele>8.0</ele><time>2026-04-06T16:58:38.999Z</time></trkpt><trkpt lat="51.04332038419922" lon="2.398281684158449"><ele>7.999999999999999</ele><time>2026-04-06T16:58:40.999Z</time></trkpt><trkpt lat="51.04336597557184" lon="2.398398369829978"><ele>8.0</ele><time>2026-04-06T16:58:42.999Z</time></trkpt><trkpt lat="51.04339442926843" lon="2.3985457377314643"><ele>8.0</ele><time>2026-04-06T16:58:44.999Z</time></trkpt><trkpt lat="51.043436669191635" lon="2.398682346303334"><ele>8.0</ele><time>2026-04-06T16:58:46.999Z</time></trkpt><trkpt lat="51.04346548567121" lon="2.3987983229401237"><ele>7.999999999999999</ele><time>2026-04-06T16:58:48.999Z</time></trkpt><trkpt lat="51.043485455224605" lon="2.3989222504440226"><ele>8.0</ele><time>2026-04-06T16:58:50.999Z</time></trkpt><trkpt lat="51.043532175528696" lon="2.3990585061950767"><ele>8.0</ele><time>2026-04-06T16:58:52.999Z</time></trkpt><trkpt lat="51.043559984066476" lon="2.3991808274438777"><ele>8.0</ele><time>2026-04-06T16:58:54.999Z</time></trkpt><trkpt lat="51.04359349329223" lon="2.3993113272554942"><ele>8.0</ele><time>2026-04-06T16:58:56.999Z</time></trkpt><trkpt lat="51.04361933561604" lon="2.399483932995894"><ele>8.0</ele><time>2026-04-06T16:58:58.999Z</time></trkpt><trkpt lat="51.043662492434684" lon="2.3996516825861396"><ele>8.0</ele><time>2026-04-06T16:59:00.999Z</time></trkpt><trkpt lat="51.04369855880302" lon="2.3998249068458115"><ele>8.0</ele><time>2026-04-06T16:59:02.999Z</time></trkpt><trkpt lat="51.04372862982716" lon="2.3999845363254395"><ele>8.0</ele><time>2026-04-06T16:59:04.999Z</time></trkpt><trkpt lat="51.043766245340386" lon="2.400132587581108"><ele>8.0</ele><time>2026-04-06T16:59:06.999Z</time></trkpt><trkpt lat="51.043809885030626" lon="2.400293550553029"><ele>8.0</ele><time>2026-04-06T16:59:08.999Z</time></trkpt><trkpt lat="51.04385666357829" lon="2.400438941623108"><ele>8.0</ele><time>2026-04-06T16:59:10.999Z</time></trkpt><trkpt lat="51.04390680171456" lon="2.4005826402117387"><ele>8.4</ele><time>2026-04-06T16:59:12.999Z</time></trkpt><trkpt lat="51.04395288819339" lon="2.40072155795888"><ele>8.8</ele><time>2026-04-06T16:59:14.999Z</time></trkpt><trkpt lat="51.04399520934899" lon="2.400861821318581"><ele>9.2</ele><time>2026-04-06T16:59:16.999Z</time></trkpt><trkpt lat="51.04402782518009" lon="2.401003572371545"><ele>9.6</ele><time>2026-04-06T16:59:18.999Z</time></trkpt><trkpt lat="51.0440376740896" lon="2.4011494272540177"><ele>10.0</ele><time>2026-04-06T16:59:21Z</time></trkpt><trkpt lat="51.04413476486523" lon="2.4014338088533376"><ele>10.0</ele><time>2026-04-06T16:59:26Z</time></trkpt><trkpt lat="51.04415782749793" lon="2.401562801825897"><ele>10.0</ele><time>2026-04-06T16:59:28Z</time></trkpt><trkpt lat="51.044195352765385" lon="2.4016829608246835"><ele>10.0</ele><time>2026-04-06T16:59:30Z</time></trkpt><trkpt lat="51.044233541244765" lon="2.401799379147944"><ele>10.0</ele><time>2026-04-06T16:59:32Z</time></trkpt><trkpt lat="51.04425386751023" lon="2.4019367730136922"><ele>10.0</ele><time>2026-04-06T16:59:34Z</time></trkpt><trkpt lat="51.04427718478467" lon="2.402081842801413"><ele>10.0</ele><time>2026-04-06T16:59:36Z</time></trkpt><trkpt lat="51.044324012110046" lon="2.4022442194946234"><ele>9.75</ele><time>2026-04-06T16:59:38Z</time></trkpt><trkpt lat="51.0443684965714" lon="2.4024220685716147"><ele>9.5</ele><time>2026-04-06T16:59:40Z</time></trkpt><trkpt lat="51.0444219144966" lon="2.402580741606341"><ele>9.25</ele><time>2026-04-06T16:59:42Z</time></trkpt><trkpt lat="51.044455472853144" lon="2.4027446591210384"><ele>9.0</ele><time>2026-04-06T16:59:44Z</time></trkpt><trkpt lat="51.04449302226946" lon="2.4029189663044375"><ele>9.0</ele><time>2026-04-06T16:59:46Z</time></trkpt><trkpt lat="51.04453307742348" lon="2.403073520011245"><ele>9.0</ele><time>2026-04-06T16:59:48Z</time></trkpt><trkpt lat="51.04457951742891" lon="2.403228350724069"><ele>9.0</ele><time>2026-04-06T16:59:50Z</time></trkpt><trkpt lat="51.04460638180832" lon="2.403375593795782"><ele>9.0</ele><time>2026-04-06T16:59:52Z</time></trkpt><trkpt lat="51.04463295529518" lon="2.403500124750227"><ele>9.0</ele><time>2026-04-06T16:59:54Z</time></trkpt><trkpt lat="51.04466357220836" lon="2.403609568384605"><ele>9.0</ele><time>2026-04-06T17:00:11Z</time></trkpt><trkpt lat="51.044664692366226" lon="2.403720455042301"><ele>9.0</ele><time>2026-04-06T17:00:14Z</time></trkpt><trkpt lat="51.04470657267048" lon="2.4038319429809416"><ele>9.0</ele><time>2026-04-06T17:00:15.999Z</time></trkpt><trkpt lat="51.04475289891948" lon="2.403955334557258"><ele>9.0</ele><time>2026-04-06T17:00:17.999Z</time></trkpt><trkpt lat="51.04479806196588" lon="2.404103914486216"><ele>9.0</ele><time>2026-04-06T17:00:19.999Z</time></trkpt><trkpt lat="51.044832056115254" lon="2.4042701028744355"><ele>9.0</ele><time>2026-04-06T17:00:21.999Z</time></trkpt><trkpt lat="51.04486298775206" lon="2.404416402109883"><ele>9.0</ele><time>2026-04-06T17:00:23.999Z</time></trkpt><trkpt lat="51.044909633952045" lon="2.404539773471428"><ele>9.0</ele><time>2026-04-06T17:00:25.999Z</time></trkpt><trkpt lat="51.04494418964436" lon="2.4046871586532945"><ele>9.0</ele><time>2026-04-06T17:00:27.999Z</time></trkpt><trkpt lat="51.04499266299813" lon="2.4048173959002908"><ele>9.0</ele><time>2026-04-06T17:00:29.999Z</time></trkpt><trkpt lat="51.04502856626776" lon="2.4049670695814758"><ele>8.8</ele><time>2026-04-06T17:00:31.999Z</time></trkpt><trkpt lat="51.04506190176873" lon="2.4051130546214"><ele>8.600000000000001</ele><time>2026-04-06T17:00:33.999Z</time></trkpt><trkpt lat="51.045087576561066" lon="2.4052791090623957"><ele>8.4</ele><time>2026-04-06T17:00:35.999Z</time></trkpt><trkpt lat="51.04511313376286" lon="2.4054185566285953"><ele>8.200000000000001</ele><time>2026-04-06T17:00:37.999Z</time></trkpt><trkpt lat="51.04515756652405" lon="2.405565539769755"><ele>8.0</ele><time>2026-04-06T17:00:39.999Z</time></trkpt><trkpt lat="51.04519735891393" lon="2.4057166844203093"><ele>8.0</ele><time>2026-04-06T17:00:41.999Z</time></trkpt><trkpt lat="51.04524273056904" lon="2.405865287618334"><ele>8.0</ele><time>2026-04-06T17:00:43.999Z</time></trkpt><trkpt lat="51.04526829177437" lon="2.4060202420989114"><ele>8.0</ele><time>2026-04-06T17:00:45.999Z</time></trkpt><trkpt lat="51.04533001233481" lon="2.40612997720016"><ele>8.0</ele><time>2026-04-06T17:00:47.999Z</time></trkpt><trkpt lat="51.04532371915428" lon="2.406261313480609"><ele>8.0</ele><time>2026-04-06T17:00:49.999Z</time></trkpt><trkpt lat="51.04532169861298" lon="2.4063991660650697"><ele>8.0</ele><time>2026-04-06T17:00:51.999Z</time></trkpt><trkpt lat="51.04537616699947" lon="2.406524425311749"><ele>8.0</ele><time>2026-04-06T17:00:53.999Z</time></trkpt><trkpt lat="51.04542876457251" lon="2.4066443033465017"><ele>8.0</ele><time>2026-04-06T17:00:55.999Z</time></trkpt><trkpt lat="51.04546857651198" lon="2.406777926643338"><ele>8.0</ele><time>2026-04-06T17:00:57.999Z</time></trkpt><trkpt lat="51.04550750790572" lon="2.4069129497932003"><ele>8.0</ele><time>2026-04-06T17:00:59.999Z</time></trkpt><trkpt lat="51.04552465917174" lon="2.4070685592782484"><ele>7.999999999999999</ele><time>2026-04-06T17:01:01.999Z</time></trkpt><trkpt lat="51.045561113320296" lon="2.4071898966396503"><ele>8.0</ele><time>2026-04-06T17:01:03.999Z</time></trkpt><trkpt lat="51.04558278940896" lon="2.407323640048586"><ele>8.0</ele><time>2026-04-06T17:01:05.999Z</time></trkpt><trkpt lat="51.04560638656906" lon="2.4074240289314246"><ele>8.0</ele><time>2026-04-06T17:01:07.999Z</time></trkpt><trkpt lat="51.04565879452993" lon="2.407563450170947"><ele>7.999999999999999</ele><time>2026-04-06T17:01:09.999Z</time></trkpt><trkpt lat="51.04566195151722" lon="2.407706582052476"><ele>8.0</ele><time>2026-04-06T17:01:11.999Z</time></trkpt><trkpt lat="51.045699948839726" lon="2.4077952198356383"><ele>8.0</ele><time>2026-04-06T17:01:13.999Z</time></trkpt><trkpt lat="51.045719482985895" lon="2.40790772135351"><ele>7.999999999999999</ele><time>2026-04-06T17:01:15.999Z</time></trkpt><trkpt lat="51.045751841302774" lon="2.4080063915367176"><ele>8.0</ele><time>2026-04-06T17:01:17.999Z</time></trkpt><trkpt lat="51.045764331095924" lon="2.4081198518908224"><ele>8.0</ele><time>2026-04-06T17:01:21.999Z</time></trkpt><trkpt lat="51.04582693079182" lon="2.4080794367377463"><ele>7.999999999999999</ele><time>2026-04-06T17:01:31Z</time></trkpt><trkpt lat="51.04586229297737" lon="2.407976011446143"><ele>8.0</ele><time>2026-04-06T17:01:34Z</time></trkpt><trkpt lat="51.04584872919972" lon="2.407853378695098"><ele>8.0</ele><time>2026-04-06T17:01:36Z</time></trkpt><trkpt lat="51.045824792303385" lon="2.407709450861526"><ele>7.999999999999999</ele><time>2026-04-06T17:01:39Z</time></trkpt><trkpt lat="51.045809710510085" lon="2.4075959320238582"><ele>8.0</ele><time>2026-04-06T17:01:41Z</time></trkpt><trkpt lat="51.04577716938808" lon="2.4074725266308583"><ele>8.0</ele><time>2026-04-06T17:01:43Z</time></trkpt><trkpt lat="51.045757982923966" lon="2.4073762653730553"><ele>8.0</ele><time>2026-04-06T17:01:45Z</time></trkpt><trkpt lat="51.045731986502055" lon="2.4072435836022303"><ele>7.999999999999999</ele><time>2026-04-06T17:01:48Z</time></trkpt><trkpt lat="51.04570501001502" lon="2.4071151950863885"><ele>8.0</ele><time>2026-04-06T17:01:51Z</time></trkpt><trkpt lat="51.04567333121446" lon="2.407008160373605"><ele>7.999999999999999</ele><time>2026-04-06T17:01:54Z</time></trkpt><trkpt lat="51.04565257969829" lon="2.4068798476808926"><ele>8.0</ele><time>2026-04-06T17:01:57Z</time></trkpt><trkpt lat="51.045623612345594" lon="2.4067696021786187"><ele>8.0</ele><time>2026-04-06T17:01:59Z</time></trkpt><trkpt lat="51.04559934409486" lon="2.406656026217646"><ele>8.0</ele><time>2026-04-06T17:02:01Z</time></trkpt><trkpt lat="51.04556005238974" lon="2.4065403820017583"><ele>7.999999999999999</ele><time>2026-04-06T17:02:03Z</time></trkpt><trkpt lat="51.04552859080909" lon="2.4064071721167424"><ele>8.0</ele><time>2026-04-06T17:02:05Z</time></trkpt><trkpt lat="51.04549692431404" lon="2.406278141970074"><ele>7.999999999999999</ele><time>2026-04-06T17:02:07Z</time></trkpt><trkpt lat="51.04547387494425" lon="2.4061523811653256"><ele>8.0</ele><time>2026-04-06T17:02:09Z</time></trkpt><trkpt lat="51.04544299015024" lon="2.4060409919033843"><ele>8.0</ele><time>2026-04-06T17:02:11Z</time></trkpt><trkpt lat="51.04540829002828" lon="2.4059321759685464"><ele>8.0</ele><time>2026-04-06T17:02:13Z</time></trkpt><trkpt lat="51.0453852306503" lon="2.4058190201556995"><ele>7.999999999999999</ele><time>2026-04-06T17:02:15Z</time></trkpt><trkpt lat="51.045358143342085" lon="2.4056917125805253"><ele>8.0</ele><time>2026-04-06T17:02:17Z</time></trkpt><trkpt lat="51.04533305291709" lon="2.4055595139812587"><ele>7.999999999999999</ele><time>2026-04-06T17:02:18.999Z</time></trkpt><trkpt lat="51.04529486778634" lon="2.405430688279505"><ele>8.0</ele><time>2026-04-06T17:02:20.999Z</time></trkpt><trkpt lat="51.04525762753007" lon="2.405345855558489"><ele>8.0</ele><time>2026-04-06T17:02:26.999Z</time></trkpt><trkpt lat="51.04520122904733" lon="2.40527167007178"><ele>8.0</ele><time>2026-04-06T17:02:38.999Z</time></trkpt><trkpt lat="51.045182287604675" lon="2.4051509162613756"><ele>7.999999999999999</ele><time>2026-04-06T17:02:40.999Z</time></trkpt><trkpt lat="51.04515675228764" lon="2.4050300014125754"><ele>8.0</ele><time>2026-04-06T17:02:42.999Z</time></trkpt><trkpt lat="51.045127970061195" lon="2.4049014484167395"><ele>8.0</ele><time>2026-04-06T17:02:44.999Z</time></trkpt><trkpt lat="51.04510036382865" lon="2.404759841922529"><ele>8.0</ele><time>2026-04-06T17:02:46.999Z</time></trkpt><trkpt lat="51.04506120558934" lon="2.404620932122784"><ele>8.0</ele><time>2026-04-06T17:02:48.999Z</time></trkpt><trkpt lat="51.04503430243306" lon="2.4044871165783412"><ele>8.0</ele><time>2026-04-06T17:02:50.999Z</time></trkpt><trkpt lat="51.04500395494335" lon="2.4043548264781633"><ele>8.0</ele><time>2026-04-06T17:02:52.999Z</time></trkpt><trkpt lat="51.044975087818855" lon="2.4042210972250375"><ele>8.142857142857142</ele><time>2026-04-06T17:02:54.999Z</time></trkpt><trkpt lat="51.044954438915795" lon="2.404109521441653"><ele>8.285714285714285</ele><time>2026-04-06T17:02:56.999Z</time></trkpt><trkpt lat="51.044921645435245" lon="2.4039966480647044"><ele>8.428571428571429</ele><time>2026-04-06T17:02:58.999Z</time></trkpt><trkpt lat="51.044892495676656" lon="2.4038913354691394"><ele>8.571428571428571</ele><time>2026-04-06T17:03:01.999Z</time></trkpt><trkpt lat="51.04487960416945" lon="2.403790421581477"><ele>8.714285714285715</ele><time>2026-04-06T17:03:23.999Z</time></trkpt><trkpt lat="51.04488817229065" lon="2.4036660288260556"><ele>8.857142857142858</ele><time>2026-04-06T17:03:26.999Z</time></trkpt><trkpt lat="51.04483171195548" lon="2.4035765352311653"><ele>9.0</ele><time>2026-04-06T17:03:28.999Z</time></trkpt><trkpt lat="51.04479204612159" lon="2.4034391012929737"><ele>9.0</ele><time>2026-04-06T17:03:30.998Z</time></trkpt><trkpt lat="51.0447607010333" lon="2.403325839813878"><ele>9.0</ele><time>2026-04-06T17:03:33Z</time></trkpt><trkpt lat="51.044735585882336" lon="2.403194480118785"><ele>9.0</ele><time>2026-04-06T17:03:35Z</time></trkpt><trkpt lat="51.04471112494131" lon="2.403059641698719"><ele>9.0</ele><time>2026-04-06T17:03:37Z</time></trkpt><trkpt lat="51.04467861921086" lon="2.4029346288568916"><ele>9.0</ele><time>2026-04-06T17:03:39Z</time></trkpt><trkpt lat="51.04464220688373" lon="2.4028138958985275"><ele>9.0</ele><time>2026-04-06T17:03:41Z</time></trkpt><trkpt lat="51.04461519946856" lon="2.402699276859674"><ele>9.0</ele><time>2026-04-06T17:03:43Z</time></trkpt><trkpt lat="51.044575123666036" lon="2.402582163773425"><ele>9.0</ele><time>2026-04-06T17:03:45Z</time></trkpt><trkpt lat="51.04453291718711" lon="2.402477831288265"><ele>9.0</ele><time>2026-04-06T17:03:47Z</time></trkpt><trkpt lat="51.04449046103089" lon="2.4023481960658883"><ele>9.0</ele><time>2026-04-06T17:03:50Z</time></trkpt><trkpt lat="51.04447148698388" lon="2.402238291731665"><ele>9.0</ele><time>2026-04-06T17:03:52Z</time></trkpt><trkpt lat="51.04445684582726" lon="2.402136894796108"><ele>9.0</ele><time>2026-04-06T17:03:54Z</time></trkpt><trkpt lat="51.044432333195466" lon="2.402036617476315"><ele>9.000000000000002</ele><time>2026-04-06T17:03:56Z</time></trkpt><trkpt lat="51.04441127034295" lon="2.4019398154448526"><ele>9.0</ele><time>2026-04-06T17:03:58Z</time></trkpt><trkpt lat="51.044381921005744" lon="2.4018432819033193"><ele>9.0</ele><time>2026-04-06T17:04:00Z</time></trkpt><trkpt lat="51.044357574524085" lon="2.4017500853809577"><ele>9.0</ele><time>2026-04-06T17:04:02Z</time></trkpt><trkpt lat="51.044329298446385" lon="2.401646094959243"><ele>9.0</ele><time>2026-04-06T17:04:04Z</time></trkpt><trkpt lat="51.044298243020215" lon="2.401524584293553"><ele>9.000000000000002</ele><time>2026-04-06T17:04:06Z</time></trkpt><trkpt lat="51.044270225766475" lon="2.401411572228572"><ele>9.0</ele><time>2026-04-06T17:04:08Z</time></trkpt><trkpt lat="51.04423909283798" lon="2.4012945608805314"><ele>9.000000000000002</ele><time>2026-04-06T17:04:10Z</time></trkpt><trkpt lat="51.04421924779818" lon="2.4011798469773646"><ele>9.0</ele><time>2026-04-06T17:04:12Z</time></trkpt><trkpt lat="51.0441981022072" lon="2.401054680688201"><ele>9.0</ele><time>2026-04-06T17:04:33.999Z</time></trkpt><trkpt lat="51.044175649808395" lon="2.4009439449073393"><ele>9.0</ele><time>2026-04-06T17:04:35.999Z</time></trkpt><trkpt lat="51.04415901652483" lon="2.4008354668407628"><ele>9.0</ele><time>2026-04-06T17:04:37.999Z</time></trkpt><trkpt lat="51.04413543535216" lon="2.400728175101628"><ele>9.000000000000002</ele><time>2026-04-06T17:04:39.999Z</time></trkpt><trkpt lat="51.04409945088987" lon="2.400622840959837"><ele>9.0</ele><time>2026-04-06T17:04:41.999Z</time></trkpt><trkpt lat="51.04406233707114" lon="2.4004985630211735"><ele>8.833333333333334</ele><time>2026-04-06T17:04:43.999Z</time></trkpt><trkpt lat="51.04402800735057" lon="2.400373856924878"><ele>8.666666666666666</ele><time>2026-04-06T17:04:45.999Z</time></trkpt><trkpt lat="51.043991291536486" lon="2.4002412586505826"><ele>8.5</ele><time>2026-04-06T17:04:47.999Z</time></trkpt><trkpt lat="51.043976648649135" lon="2.4000887654458642"><ele>8.333333333333332</ele><time>2026-04-06T17:04:49.999Z</time></trkpt><trkpt lat="51.04394265602913" lon="2.399960958469446"><ele>8.166666666666666</ele><time>2026-04-06T17:04:51.999Z</time></trkpt><trkpt lat="51.04391030268545" lon="2.3998484829568367"><ele>8.0</ele><time>2026-04-06T17:04:53.999Z</time></trkpt><trkpt lat="51.04388370492011" lon="2.399736330443343"><ele>7.833333333333333</ele><time>2026-04-06T17:04:55.999Z</time></trkpt><trkpt lat="51.043863616025476" lon="2.3996278994974367"><ele>7.666666666666666</ele><time>2026-04-06T17:04:57.999Z</time></trkpt><trkpt lat="51.04383693409004" lon="2.3995199956214734"><ele>7.5</ele><time>2026-04-06T17:04:59.999Z</time></trkpt><trkpt lat="51.04380300534727" lon="2.3994349846058207"><ele>7.333333333333334</ele><time>2026-04-06T17:05:01.999Z</time></trkpt><trkpt lat="51.043790105265295" lon="2.399331273784591"><ele>7.166666666666667</ele><time>2026-04-06T17:05:03.999Z</time></trkpt><trkpt lat="51.04373883778849" lon="2.3991806157813635"><ele>7.0</ele><time>2026-04-06T17:05:06.999Z</time></trkpt><trkpt lat="51.043685012991595" lon="2.399080810529446"><ele>7.000000000000001</ele><time>2026-04-06T17:05:09.999Z</time></trkpt><trkpt lat="51.04364259059211" lon="2.3989910074780005"><ele>7.0</ele><time>2026-04-06T17:05:12.999Z</time></trkpt><trkpt lat="51.043586875049435" lon="2.3988947095182644"><ele>7.0</ele><time>2026-04-06T17:05:16.999Z</time></trkpt><trkpt lat="51.043549769700675" lon="2.3988091617549743"><ele>7.0</ele><time>2026-04-06T17:05:19.999Z</time></trkpt><trkpt lat="51.0435134464111" lon="2.3987103347409193"><ele>7.000000000000001</ele><time>2026-04-06T17:05:23.999Z</time></trkpt><trkpt lat="51.04354240859531" lon="2.398577930265959"><ele>7.0</ele><time>2026-04-06T17:06:13Z</time></trkpt><trkpt lat="51.043502841492604" lon="2.3984575573241296"><ele>7.000000000000001</ele><time>2026-04-06T17:06:16Z</time></trkpt><trkpt lat="51.04348068892191" lon="2.398342170294236"><ele>7.0</ele><time>2026-04-06T17:06:18Z</time></trkpt><trkpt lat="51.04347443491099" lon="2.3982136959322813"><ele>7.0</ele><time>2026-04-06T17:06:20Z</time></trkpt><trkpt lat="51.04346038184509" lon="2.398093691083278"><ele>7.0</ele><time>2026-04-06T17:06:22Z</time></trkpt><trkpt lat="51.0434128844273" lon="2.3979609266225133"><ele>7.000000000000001</ele><time>2026-04-06T17:06:24Z</time></trkpt><trkpt lat="51.043374290374096" lon="2.397831420345498"><ele>7.0</ele><time>2026-04-06T17:06:25.999Z</time></trkpt><trkpt lat="51.04335570959818" lon="2.3976804431773684"><ele>7.000000000000001</ele><time>2026-04-06T17:06:27.999Z</time></trkpt><trkpt lat="51.04333481299625" lon="2.3975200047437477"><ele>7.0</ele><time>2026-04-06T17:06:29.999Z</time></trkpt><trkpt lat="51.043295898827964" lon="2.397441193027199"><ele>7.0</ele><time>2026-04-06T17:06:31.999Z</time></trkpt><trkpt lat="51.043261283579206" lon="2.3973268888772887"><ele>7.0</ele><time>2026-04-06T17:06:34.999Z</time></trkpt><trkpt lat="51.043227772646894" lon="2.3971999142557516"><ele>7.000000000000001</ele><time>2026-04-06T17:06:37.999Z</time></trkpt><trkpt lat="51.04318363627547" lon="2.397089245281667"><ele>7.0</ele><time>2026-04-06T17:06:40.999Z</time></trkpt><trkpt lat="51.043156804623266" lon="2.396936373887295"><ele>7.000000000000001</ele><time>2026-04-06T17:06:43.999Z</time></trkpt><trkpt lat="51.04311614601491" lon="2.3968136901175745"><ele>7.0</ele><time>2026-04-06T17:06:46.999Z</time></trkpt><trkpt lat="51.04306624737699" lon="2.3967113891702634"><ele>7.0</ele><time>2026-04-06T17:06:49.999Z</time></trkpt><trkpt lat="51.04306227681383" lon="2.3965694468688628"><ele>7.0</ele><time>2026-04-06T17:06:52.999Z</time></trkpt><trkpt lat="51.04304712174113" lon="2.3964197291944935"><ele>7.000000000000001</ele><time>2026-04-06T17:06:55.999Z</time></trkpt><trkpt lat="51.043018136672615" lon="2.3963075690228934"><ele>7.0</ele><time>2026-04-06T17:06:58.999Z</time></trkpt><trkpt lat="51.04303263374334" lon="2.3961791715230274"><ele>7.0</ele><time>2026-04-06T17:07:01.999Z</time></trkpt><trkpt lat="51.042987724682206" lon="2.3960758640732887"><ele>6.999999999999999</ele><time>2026-04-06T17:07:04.999Z</time></trkpt><trkpt lat="51.042940852414716" lon="2.3959419522352405"><ele>6.999999999999999</ele><time>2026-04-06T17:07:06.999Z</time></trkpt><trkpt lat="51.042911640615166" lon="2.3958309852762083"><ele>7.0</ele><time>2026-04-06T17:07:07.999Z</time></trkpt><trkpt lat="51.0428990334373" lon="2.3956856875859796"><ele>7.0</ele><time>2026-04-06T17:07:09.999Z</time></trkpt><trkpt lat="51.04279274031007" lon="2.3956149942124663"><ele>7.000000000000001</ele><time>2026-04-06T17:07:11.999Z</time></trkpt><trkpt lat="51.042766288426606" lon="2.395513474875569"><ele>7.0</ele><time>2026-04-06T17:07:12.999Z</time></trkpt><trkpt lat="51.04272198836689" lon="2.3953434562930913"><ele>7.0</ele><time>2026-04-06T17:07:14.999Z</time></trkpt><trkpt lat="51.04269603750458" lon="2.395243859890891"><ele>7.0</ele><time>2026-04-06T17:07:15.999Z</time></trkpt><trkpt lat="51.04266104297306" lon="2.3951095548508508"><ele>7.000000000000001</ele><time>2026-04-06T17:07:16.999Z</time></trkpt><trkpt lat="51.04262712557235" lon="2.3949795101448688"><ele>7.0</ele><time>2026-04-06T17:07:17.999Z</time></trkpt><trkpt lat="51.04259028171513" lon="2.394842163256286"><ele>7.199999999999999</ele><time>2026-04-06T17:07:18.999Z</time></trkpt><trkpt lat="51.04255948054684" lon="2.3947273423458024"><ele>7.3999999999999995</ele><time>2026-04-06T17:07:19.999Z</time></trkpt><trkpt lat="51.04251348356176" lon="2.3945558744269824"><ele>7.6000000000000005</ele><time>2026-04-06T17:07:21.999Z</time></trkpt><trkpt lat="51.042474628583705" lon="2.394385055694875"><ele>7.800000000000001</ele><time>2026-04-06T17:07:23.999Z</time></trkpt><trkpt lat="51.04242690063507" lon="2.3942131514898963"><ele>8.0</ele><time>2026-04-06T17:07:25.999Z</time></trkpt><trkpt lat="51.04239486328588" lon="2.3940503573144385"><ele>8.0</ele><time>2026-04-06T17:07:27.999Z</time></trkpt><trkpt lat="51.04237486121182" lon="2.3939498939736845"><ele>8.0</ele><time>2026-04-06T17:07:28.999Z</time></trkpt><trkpt lat="51.042329748804704" lon="2.3937908566329207"><ele>8.0</ele><time>2026-04-06T17:07:30.999Z</time></trkpt><trkpt lat="51.042277059647326" lon="2.3936366927043373"><ele>8.0</ele><time>2026-04-06T17:07:32.999Z</time></trkpt><trkpt lat="51.042263380296596" lon="2.3935187539197824"><ele>8.0</ele><time>2026-04-06T17:07:35.999Z</time></trkpt><trkpt lat="51.042213629474304" lon="2.3933738914737006"><ele>8.0</ele><time>2026-04-06T17:07:37.998Z</time></trkpt><trkpt lat="51.0421816971376" lon="2.393206051581515"><ele>8.0</ele><time>2026-04-06T17:07:39.998Z</time></trkpt><trkpt lat="51.04214819181594" lon="2.393044162683599"><ele>8.0</ele><time>2026-04-06T17:07:41.998Z</time></trkpt><trkpt lat="51.042122745694705" lon="2.3929519821803824"><ele>8.0</ele><time>2026-04-06T17:07:42.998Z</time></trkpt><trkpt lat="51.042064054235546" lon="2.39280406425765"><ele>8.0</ele><time>2026-04-06T17:07:45Z</time></trkpt><trkpt lat="51.0420337829789" lon="2.3927147790557384"><ele>8.0</ele><time>2026-04-06T17:07:46Z</time></trkpt><trkpt lat="51.042005359589524" lon="2.392567487126468"><ele>8.0</ele><time>2026-04-06T17:07:48Z</time></trkpt><trkpt lat="51.04196921938866" lon="2.392422600968271"><ele>8.0</ele><time>2026-04-06T17:07:50Z</time></trkpt><trkpt lat="51.04194224192314" lon="2.3922774019025725"><ele>8.0</ele><time>2026-04-06T17:07:52Z</time></trkpt><trkpt lat="51.041933434871694" lon="2.392131207952304"><ele>8.0</ele><time>2026-04-06T17:07:54Z</time></trkpt><trkpt lat="51.041889507828756" lon="2.392018053358655"><ele>7.999999999999999</ele><time>2026-04-06T17:07:56Z</time></trkpt><trkpt lat="51.04186377410569" lon="2.3919136445058413"><ele>8.0</ele><time>2026-04-06T17:07:58Z</time></trkpt><trkpt lat="51.0418278388666" lon="2.3917669562808226"><ele>8.0</ele><time>2026-04-06T17:08:01Z</time></trkpt><trkpt lat="51.04180216034483" lon="2.3916621361592907"><ele>8.0</ele><time>2026-04-06T17:08:03Z</time></trkpt><trkpt lat="51.04176822882815" lon="2.391523627173949"><ele>7.999999999999999</ele><time>2026-04-06T17:08:06Z</time></trkpt><trkpt lat="51.04174525527613" lon="2.3914293340853687"><ele>8.0</ele><time>2026-04-06T17:08:08Z</time></trkpt><trkpt lat="51.04171615478557" lon="2.3912970720234554"><ele>7.833333333333333</ele><time>2026-04-06T17:08:11Z</time></trkpt><trkpt lat="51.04168810614952" lon="2.391199077640694"><ele>7.666666666666666</ele><time>2026-04-06T17:08:13Z</time></trkpt><trkpt lat="51.04165896684661" lon="2.3910820849660075"><ele>7.5</ele><time>2026-04-06T17:08:15Z</time></trkpt><trkpt lat="51.04161997983124" lon="2.390959779627277"><ele>7.333333333333334</ele><time>2026-04-06T17:08:17Z</time></trkpt><trkpt lat="51.0415887217462" lon="2.3908442497584645"><ele>7.166666666666667</ele><time>2026-04-06T17:08:19Z</time></trkpt><trkpt lat="51.04155359687633" lon="2.3907252159896424"><ele>7.0</ele><time>2026-04-06T17:08:21Z</time></trkpt><trkpt lat="51.041533845735415" lon="2.3906150193293114"><ele>7.166666666666667</ele><time>2026-04-06T17:08:23Z</time></trkpt><trkpt lat="51.04150282423643" lon="2.390491699932143"><ele>7.333333333333334</ele><time>2026-04-06T17:08:25.999Z</time></trkpt><trkpt lat="51.041488998230065" lon="2.3903567642088532"><ele>7.5</ele><time>2026-04-06T17:08:28.999Z</time></trkpt><trkpt lat="51.04148566657039" lon="2.390223885655598"><ele>7.666666666666666</ele><time>2026-04-06T17:08:30.999Z</time></trkpt><trkpt lat="51.04145843516496" lon="2.390104810683807"><ele>7.833333333333333</ele><time>2026-04-06T17:08:32.999Z</time></trkpt><trkpt lat="51.041440690477245" lon="2.3899804939340634"><ele>8.0</ele><time>2026-04-06T17:08:34.999Z</time></trkpt><trkpt lat="51.041420916087034" lon="2.389883824770052"><ele>8.0</ele><time>2026-04-06T17:08:36.999Z</time></trkpt><trkpt lat="51.04141527872023" lon="2.3897788559384336"><ele>7.999999999999999</ele><time>2026-04-06T17:08:38.999Z</time></trkpt><trkpt lat="51.04141868828888" lon="2.3896688187132846"><ele>8.0</ele><time>2026-04-06T17:08:40.999Z</time></trkpt><trkpt lat="51.04139268257697" lon="2.389566064625504"><ele>8.0</ele><time>2026-04-06T17:08:43.999Z</time></trkpt><trkpt lat="51.041374977897284" lon="2.389458729409272"><ele>7.999999999999999</ele><time>2026-04-06T17:08:46.999Z</time></trkpt><trkpt lat="51.041369125621245" lon="2.3893480101747384"><ele>8.0</ele><time>2026-04-06T17:08:48.999Z</time></trkpt><trkpt lat="51.0413985516078" lon="2.3892192811354134"><ele>8.0</ele><time>2026-04-06T17:08:50.999Z</time></trkpt><trkpt lat="51.04138040632408" lon="2.3890888786093827"><ele>8.0</ele><time>2026-04-06T17:08:53.999Z</time></trkpt><trkpt lat="51.04144060097381" lon="2.3891248684397857"><ele>8.0</ele><time>2026-04-06T17:08:57.999Z</time></trkpt><trkpt lat="51.04149928541732" lon="2.389163866551748"><ele>8.0</ele><time>2026-04-06T17:09:00.999Z</time></trkpt><trkpt lat="51.04156303130714" lon="2.3892259185150033"><ele>8.0</ele><time>2026-04-06T17:09:05.999Z</time></trkpt><trkpt lat="51.041735637064285" lon="2.389143140677177"><ele>8.0</ele><time>2026-04-06T17:09:34.999Z</time></trkpt><trkpt lat="51.04195409262108" lon="2.389141075525894"><ele>8.0</ele><time>2026-04-06T17:09:42.999Z</time></trkpt><trkpt lat="51.042031603654664" lon="2.389134788140539"><ele>8.0</ele><time>2026-04-06T17:09:47.998Z</time></trkpt><trkpt lat="51.04214055205573" lon="2.3891068906358335"><ele>8.0</ele><time>2026-04-06T17:09:56Z</time></trkpt><trkpt lat="51.04226058940627" lon="2.3891349610953623"><ele>8.0</ele><time>2026-04-06T17:10:02Z</time></trkpt><trkpt lat="51.042345605357646" lon="2.3891588007950806"><ele>8.0</ele><time>2026-04-06T17:10:05Z</time></trkpt><trkpt lat="51.04240799482812" lon="2.389180516592988"><ele>8.0</ele><time>2026-04-06T17:10:07Z</time></trkpt><trkpt lat="51.04259403993425" lon="2.389163828452329"><ele>8.0</ele><time>2026-04-06T17:10:13Z</time></trkpt><trkpt lat="51.04269426877869" lon="2.3891174736565035"><ele>8.0</ele><time>2026-04-06T17:10:16Z</time></trkpt><trkpt lat="51.04286073130615" lon="2.389146090216275"><ele>8.0</ele><time>2026-04-06T17:10:21Z</time></trkpt><trkpt lat="51.04295333027382" lon="2.3891036922184683"><ele>8.0</ele><time>2026-04-06T17:10:24Z</time></trkpt><trkpt lat="51.0430229785671" lon="2.3890744378494038"><ele>8.0</ele><time>2026-04-06T17:10:26Z</time></trkpt><trkpt lat="51.043153402890894" lon="2.3890952952746"><ele>8.0</ele><time>2026-04-06T17:10:30Z</time></trkpt><trkpt lat="51.043223622716496" lon="2.3891161088332016"><ele>8.0</ele><time>2026-04-06T17:10:32Z</time></trkpt><trkpt lat="51.04354337793872" lon="2.3890064377359943"><ele>7.800000000000001</ele><time>2026-04-06T17:10:41.61Z</time></trkpt><trkpt lat="51.04369664103821" lon="2.3889703955523567"><ele>7.6000000000000005</ele><time>2026-04-06T17:10:48Z</time></trkpt><trkpt lat="51.04376839012936" lon="2.3889577388785677"><ele>7.3999999999999995</ele><time>2026-04-06T17:10:51Z</time></trkpt><trkpt lat="51.04385455609396" lon="2.3889501951657133"><ele>7.199999999999999</ele><time>2026-04-06T17:10:54Z</time></trkpt><trkpt lat="51.04394611143501" lon="2.388933441602665"><ele>7.0</ele><time>2026-04-06T17:10:57Z</time></trkpt><trkpt lat="51.044009857947394" lon="2.3889258864669505"><ele>7.000000000000001</ele><time>2026-04-06T17:10:59Z</time></trkpt><trkpt lat="51.04408518445133" lon="2.3888970148897175"><ele>7.0</ele><time>2026-04-06T17:11:02Z</time></trkpt><trkpt lat="51.04418515176873" lon="2.3888780211415983"><ele>7.0</ele><time>2026-04-06T17:11:05Z</time></trkpt><trkpt lat="51.04427658915223" lon="2.388870770556864"><ele>7.0</ele><time>2026-04-06T17:11:08Z</time></trkpt><trkpt lat="51.044361699484874" lon="2.388845097051622"><ele>7.000000000000001</ele><time>2026-04-06T17:11:11Z</time></trkpt><trkpt lat="51.04442736202632" lon="2.3888300073953603"><ele>7.0</ele><time>2026-04-06T17:11:13Z</time></trkpt><trkpt lat="51.04451253165426" lon="2.3888419929234592"><ele>7.166666666666667</ele><time>2026-04-06T17:11:15Z</time></trkpt><trkpt lat="51.04459649901867" lon="2.388805592793996"><ele>7.333333333333334</ele><time>2026-04-06T17:11:17Z</time></trkpt><trkpt lat="51.044697590744654" lon="2.388789827326727"><ele>7.5</ele><time>2026-04-06T17:11:20Z</time></trkpt><trkpt lat="51.04478527158006" lon="2.3887772140204473"><ele>7.666666666666666</ele><time>2026-04-06T17:11:22Z</time></trkpt><trkpt lat="51.044873984408405" lon="2.388770425673587"><ele>7.833333333333333</ele><time>2026-04-06T17:11:24Z</time></trkpt><trkpt lat="51.04495516175695" lon="2.3887490939202585"><ele>8.0</ele><time>2026-04-06T17:11:26Z</time></trkpt><trkpt lat="51.04505414613382" lon="2.3887106398645646"><ele>8.166666666666666</ele><time>2026-04-06T17:11:30Z</time></trkpt><trkpt lat="51.04514637155373" lon="2.388668071809879"><ele>8.333333333333332</ele><time>2026-04-06T17:11:33Z</time></trkpt><trkpt lat="51.04523688353676" lon="2.388614483920629"><ele>8.5</ele><time>2026-04-06T17:11:36Z</time></trkpt><trkpt lat="51.04530186289026" lon="2.3885932866018984"><ele>8.666666666666666</ele><time>2026-04-06T17:11:38Z</time></trkpt><trkpt lat="51.045378270778734" lon="2.3885876624551923"><ele>8.833333333333334</ele><time>2026-04-06T17:11:40Z</time></trkpt><trkpt lat="51.04543790601778" lon="2.3885139125765833"><ele>9.0</ele><time>2026-04-06T17:11:42Z</time></trkpt><trkpt lat="51.04561002206179" lon="2.388497527431436"><ele>9.0</ele><time>2026-04-06T17:11:45.999Z</time></trkpt><trkpt lat="51.045702017038764" lon="2.388458751071373"><ele>9.0</ele><time>2026-04-06T17:11:48.999Z</time></trkpt><trkpt lat="51.045746962993526" lon="2.3883873717418806"><ele>9.0</ele><time>2026-04-06T17:11:51.999Z</time></trkpt><trkpt lat="51.045813304689396" lon="2.3884603209892212"><ele>9.0</ele><time>2026-04-06T17:11:56.999Z</time></trkpt><trkpt lat="51.04582630906088" lon="2.388563134969966"><ele>9.0</ele><time>2026-04-06T17:11:59.999Z</time></trkpt><trkpt lat="51.045845305914334" lon="2.388684190842738"><ele>9.0</ele><time>2026-04-06T17:12:03.999Z</time></trkpt><trkpt lat="51.045881763424404" lon="2.388792184310918"><ele>9.0</ele><time>2026-04-06T17:12:07.999Z</time></trkpt><trkpt lat="51.046126037651355" lon="2.3886589039526305"><ele>9.0</ele><time>2026-04-06T17:12:44.016Z</time></trkpt><trkpt lat="51.046092203605674" lon="2.3887584776941964"><ele>9.0</ele><time>2026-04-06T17:12:47.999Z</time></trkpt><trkpt lat="51.04611059120957" lon="2.388855234252589"><ele>9.0</ele><time>2026-04-06T17:12:50.999Z</time></trkpt><trkpt lat="51.04600608319524" lon="2.388868445347363"><ele>8.833333333333334</ele><time>2026-04-06T17:12:55Z</time></trkpt><trkpt lat="51.04598008661333" lon="2.388974948664457"><ele>8.666666666666666</ele><time>2026-04-06T17:12:58Z</time></trkpt><trkpt lat="51.046005037683614" lon="2.3890738018526814"><ele>8.5</ele><time>2026-04-06T17:13:02Z</time></trkpt><trkpt lat="51.04603678282206" lon="2.3891870561969912"><ele>8.333333333333332</ele><time>2026-04-06T17:13:04Z</time></trkpt><trkpt lat="51.04606586341457" lon="2.3892865687405234"><ele>8.166666666666666</ele><time>2026-04-06T17:13:08Z</time></trkpt><trkpt lat="51.04609339797604" lon="2.3894256807964753"><ele>8.0</ele><time>2026-04-06T17:13:11Z</time></trkpt><trkpt lat="51.046127342740824" lon="2.3895455098672964"><ele>7.999999999999999</ele><time>2026-04-06T17:13:13Z</time></trkpt><trkpt lat="51.04616174726276" lon="2.389640766482878"><ele>8.0</ele><time>2026-04-06T17:13:15Z</time></trkpt><trkpt lat="51.04618536456746" lon="2.389763306119297"><ele>8.0</ele><time>2026-04-06T17:13:18Z</time></trkpt><trkpt lat="51.046208324855826" lon="2.3898873741879934"><ele>8.0</ele><time>2026-04-06T17:13:21Z</time></trkpt><trkpt lat="51.046222845066346" lon="2.3900042551025527"><ele>7.999999999999999</ele><time>2026-04-06T17:13:24Z</time></trkpt><trkpt lat="51.04626387079593" lon="2.3901351150265597"><ele>8.0</ele><time>2026-04-06T17:13:29Z</time></trkpt><trkpt lat="51.04631175702213" lon="2.390261731227129"><ele>7.999999999999999</ele><time>2026-04-06T17:13:32Z</time></trkpt><trkpt lat="51.0463310679831" lon="2.3903826310003367"><ele>8.0</ele><time>2026-04-06T17:13:34Z</time></trkpt><trkpt lat="51.0463470465821" lon="2.39051470551246"><ele>8.0</ele><time>2026-04-06T17:13:37Z</time></trkpt><trkpt lat="51.04639780822669" lon="2.3905912369654994"><ele>8.0</ele><time>2026-04-06T17:13:40Z</time></trkpt><trkpt lat="51.04643369697472" lon="2.3907172228212263"><ele>7.999999999999999</ele><time>2026-04-06T17:13:43Z</time></trkpt><trkpt lat="51.0464644438202" lon="2.3908097078382355"><ele>8.0</ele><time>2026-04-06T17:13:45Z</time></trkpt><trkpt lat="51.0464942705029" lon="2.3909122671353438"><ele>7.999999999999999</ele><time>2026-04-06T17:13:47Z</time></trkpt><trkpt lat="51.04652041615186" lon="2.3910319002136657"><ele>8.0</ele><time>2026-04-06T17:13:49Z</time></trkpt><trkpt lat="51.046554081030735" lon="2.3911485327218154"><ele>8.0</ele><time>2026-04-06T17:13:51Z</time></trkpt><trkpt lat="51.04657605710892" lon="2.391269130396387"><ele>8.0</ele><time>2026-04-06T17:13:53Z</time></trkpt><trkpt lat="51.04660905959389" lon="2.3913822483838896"><ele>7.999999999999999</ele><time>2026-04-06T17:13:54.999Z</time></trkpt><trkpt lat="51.046634882708275" lon="2.3914975855530156"><ele>8.0</ele><time>2026-04-06T17:13:56.999Z</time></trkpt><trkpt lat="51.046662279178996" lon="2.3916195150664836"><ele>8.0</ele><time>2026-04-06T17:13:58.999Z</time></trkpt><trkpt lat="51.046690927262276" lon="2.3917381450618747"><ele>7.999999999999999</ele><time>2026-04-06T17:14:00.999Z</time></trkpt><trkpt lat="51.04672589484987" lon="2.391844060124782"><ele>8.0</ele><time>2026-04-06T17:14:02.999Z</time></trkpt><trkpt lat="51.04675605968343" lon="2.391961569232124"><ele>8.0</ele><time>2026-04-06T17:14:04.999Z</time></trkpt><trkpt lat="51.046782927249055" lon="2.3920761644035853"><ele>7.999999999999999</ele><time>2026-04-06T17:14:06.999Z</time></trkpt><trkpt lat="51.04680783486338" lon="2.392171308938656"><ele>8.0</ele><time>2026-04-06T17:14:08.999Z</time></trkpt><trkpt lat="51.046783143695144" lon="2.392279022043249"><ele>8.0</ele><time>2026-04-06T17:14:29.999Z</time></trkpt><trkpt lat="51.046811033399145" lon="2.3923976535094327"><ele>7.999999999999999</ele><time>2026-04-06T17:14:32.999Z</time></trkpt><trkpt lat="51.04684855767835" lon="2.3924864110227864"><ele>8.0</ele><time>2026-04-06T17:14:34.999Z</time></trkpt><trkpt lat="51.04686813580262" lon="2.3926339334794124"><ele>8.0</ele><time>2026-04-06T17:14:37.999Z</time></trkpt><trkpt lat="51.046896655172795" lon="2.3927343119272275"><ele>8.0</ele><time>2026-04-06T17:14:39.999Z</time></trkpt><trkpt lat="51.04694785640368" lon="2.39282365542503"><ele>7.999999999999999</ele><time>2026-04-06T17:14:41.999Z</time></trkpt><trkpt lat="51.0469896754548" lon="2.3929377825065976"><ele>8.0</ele><time>2026-04-06T17:14:43.999Z</time></trkpt><trkpt lat="51.04701072353098" lon="2.3930751332297833"><ele>7.999999999999999</ele><time>2026-04-06T17:14:45.999Z</time></trkpt><trkpt lat="51.04704035548297" lon="2.393210378300145"><ele>8.0</ele><time>2026-04-06T17:14:47.999Z</time></trkpt><trkpt lat="51.04707726131513" lon="2.39331074735438"><ele>8.0</ele><time>2026-04-06T17:14:49.999Z</time></trkpt><trkpt lat="51.04709816696142" lon="2.3934135825539578"><ele>8.0</ele><time>2026-04-06T17:14:51.999Z</time></trkpt><trkpt lat="51.04715094330315" lon="2.3935264679389077"><ele>7.999999999999999</ele><time>2026-04-06T17:14:54.999Z</time></trkpt><trkpt lat="51.04717447206477" lon="2.393651189724114"><ele>8.0</ele><time>2026-04-06T17:14:57.999Z</time></trkpt><trkpt lat="51.04719735740015" lon="2.3937724100585287"><ele>8.333333333333332</ele><time>2026-04-06T17:15:02Z</time></trkpt><trkpt lat="51.0472436542945" lon="2.3938631993756823"><ele>8.666666666666666</ele><time>2026-04-06T17:15:09Z</time></trkpt><trkpt lat="51.04727038075062" lon="2.3939944069994454"><ele>9.0</ele><time>2026-04-06T17:15:12Z</time></trkpt><trkpt lat="51.04729876069854" lon="2.3941323148536484"><ele>9.333333333333334</ele><time>2026-04-06T17:15:15Z</time></trkpt><trkpt lat="51.04729949198933" lon="2.3942612189270545"><ele>9.666666666666668</ele><time>2026-04-06T17:15:19Z</time></trkpt><trkpt lat="51.04724428870767" lon="2.3943274861724033"><ele>10.0</ele><time>2026-04-06T17:15:22Z</time></trkpt><trkpt lat="51.047150924402665" lon="2.3943696066324143"><ele>10.0</ele><time>2026-04-06T17:15:25Z</time></trkpt><trkpt lat="51.04707961636915" lon="2.394393625119926"><ele>10.0</ele><time>2026-04-06T17:15:27Z</time></trkpt><trkpt lat="51.0470152108564" lon="2.3944395238120313"><ele>10.0</ele><time>2026-04-06T17:15:29Z</time></trkpt><trkpt lat="51.0469790649731" lon="2.3945873487920206"><ele>10.0</ele><time>2026-04-06T17:15:32Z</time></trkpt><trkpt lat="51.047014168694574" lon="2.3947035087186253"><ele>10.0</ele><time>2026-04-06T17:15:34Z</time></trkpt><trkpt lat="51.04704866043324" lon="2.3948444920671927"><ele>10.0</ele><time>2026-04-06T17:15:36Z</time></trkpt><trkpt lat="51.047066426991904" lon="2.3949964248495577"><ele>9.833333333333334</ele><time>2026-04-06T17:15:38Z</time></trkpt><trkpt lat="51.04709956161383" lon="2.395138435583544"><ele>9.666666666666668</ele><time>2026-04-06T17:15:40Z</time></trkpt><trkpt lat="51.04715107694497" lon="2.3952513144428935"><ele>9.5</ele><time>2026-04-06T17:15:42Z</time></trkpt><trkpt lat="51.04720229062778" lon="2.395363676597081"><ele>9.333333333333334</ele><time>2026-04-06T17:15:44Z</time></trkpt><trkpt lat="51.04722404083511" lon="2.3954829474172916"><ele>9.166666666666666</ele><time>2026-04-06T17:15:46Z</time></trkpt><trkpt lat="51.04724649324901" lon="2.3956151596510806"><ele>9.0</ele><time>2026-04-06T17:15:49Z</time></trkpt><trkpt lat="51.04729735258328" lon="2.395724816695624"><ele>9.0</ele><time>2026-04-06T17:15:52Z</time></trkpt><trkpt lat="51.047373316781474" lon="2.395673857629733"><ele>9.0</ele><time>2026-04-06T17:15:54Z</time></trkpt><trkpt lat="51.04745778596471" lon="2.395607635652734"><ele>9.0</ele><time>2026-04-06T17:15:56Z</time></trkpt><trkpt lat="51.047523759902255" lon="2.39552950984868"><ele>9.0</ele><time>2026-04-06T17:15:57.999Z</time></trkpt><trkpt lat="51.04758843893922" lon="2.3955044457136125"><ele>9.0</ele><time>2026-04-06T17:15:59.999Z</time></trkpt><trkpt lat="51.04767434894144" lon="2.3954716280635084"><ele>9.0</ele><time>2026-04-06T17:16:01.999Z</time></trkpt><trkpt lat="51.047722760039704" lon="2.395387976517679"><ele>9.000000000000002</ele><time>2026-04-06T17:16:04.999Z</time></trkpt><trkpt lat="51.04764840160562" lon="2.395315760158858"><ele>9.0</ele><time>2026-04-06T17:16:09.999Z</time></trkpt><trkpt lat="51.04759422300714" lon="2.395263602894007"><ele>9.0</ele><time>2026-04-06T17:16:11.999Z</time></trkpt><trkpt lat="51.04758084716093" lon="2.3951561809144826"><ele>9.0</ele><time>2026-04-06T17:16:14.999Z</time></trkpt><trkpt lat="51.047563869511414" lon="2.395056718973523"><ele>9.0</ele><time>2026-04-06T17:16:17.999Z</time></trkpt><trkpt lat="51.04757945488541" lon="2.394947470740027"><ele>9.000000000000002</ele><time>2026-04-06T17:16:20.999Z</time></trkpt><trkpt lat="51.04759078102759" lon="2.394834300709597"><ele>9.0</ele><time>2026-04-06T17:16:24.999Z</time></trkpt><trkpt lat="51.04758000527141" lon="2.39473069044381"><ele>9.0</ele><time>2026-04-06T17:16:28.999Z</time></trkpt><trkpt lat="51.047524831131966" lon="2.3946784292367087"><ele>9.0</ele><time>2026-04-06T17:22:30.999Z</time></trkpt><trkpt lat="51.04747841694264" lon="2.394583321577502"><ele>9.0</ele><time>2026-04-06T17:23:21.999Z</time></trkpt><trkpt lat="51.04743322074663" lon="2.3945017839427263"><ele>9.0</ele><time>2026-04-06T17:23:26Z</time></trkpt><trkpt lat="51.04734304891735" lon="2.3944446588792947"><ele>9.0</ele><time>2026-04-06T17:23:30Z</time></trkpt><trkpt lat="51.0472776397261" lon="2.3943746009379074"><ele>9.0</ele><time>2026-04-06T17:23:32Z</time></trkpt><trkpt lat="51.04725839767592" lon="2.394274663963021"><ele>9.166666666666666</ele><time>2026-04-06T17:23:34Z</time></trkpt><trkpt lat="51.04729329117238" lon="2.3941750171795455"><ele>9.333333333333334</ele><time>2026-04-06T17:23:36Z</time></trkpt><trkpt lat="51.04736161400156" lon="2.394050947542266"><ele>9.5</ele><time>2026-04-06T17:23:38Z</time></trkpt><trkpt lat="51.04740169746293" lon="2.3939597006396665"><ele>9.666666666666668</ele><time>2026-04-06T17:23:39Z</time></trkpt><trkpt lat="51.04735176571035" lon="2.3938642162373824"><ele>9.833333333333334</ele><time>2026-04-06T17:23:41Z</time></trkpt><trkpt lat="51.04732887990526" lon="2.3937330670607526"><ele>10.0</ele><time>2026-04-06T17:23:43Z</time></trkpt><trkpt lat="51.047309260344015" lon="2.3936196105639165"><ele>9.666666666666668</ele><time>2026-04-06T17:23:45Z</time></trkpt><trkpt lat="51.04726318859248" lon="2.3935381711712607"><ele>9.333333333333334</ele><time>2026-04-06T17:23:47Z</time></trkpt><trkpt lat="51.047251214399076" lon="2.3934229323213208"><ele>9.0</ele><time>2026-04-06T17:23:49Z</time></trkpt><trkpt lat="51.047198456482604" lon="2.3932711157376123"><ele>8.666666666666666</ele><time>2026-04-06T17:23:52Z</time></trkpt><trkpt lat="51.047139677478214" lon="2.393165200305992"><ele>8.333333333333332</ele><time>2026-04-06T17:23:54Z</time></trkpt><trkpt lat="51.04711237764959" lon="2.3929990658910474"><ele>8.0</ele><time>2026-04-06T17:23:56Z</time></trkpt><trkpt lat="51.0470928282645" lon="2.392849324524223"><ele>7.999999999999999</ele><time>2026-04-06T17:23:58Z</time></trkpt><trkpt lat="51.04706199258186" lon="2.3927416874423297"><ele>8.0</ele><time>2026-04-06T17:24:00Z</time></trkpt><trkpt lat="51.04703769067746" lon="2.392638018441419"><ele>8.0</ele><time>2026-04-06T17:24:02Z</time></trkpt><trkpt lat="51.04701291448139" lon="2.3925021186106785"><ele>8.0</ele><time>2026-04-06T17:24:04Z</time></trkpt><trkpt lat="51.04697866731038" lon="2.392381501059162"><ele>7.999999999999999</ele><time>2026-04-06T17:24:06Z</time></trkpt><trkpt lat="51.04694310328071" lon="2.3922451187989964"><ele>8.0</ele><time>2026-04-06T17:24:08Z</time></trkpt><trkpt lat="51.0469228729094" lon="2.392123205767978"><ele>7.999999999999999</ele><time>2026-04-06T17:24:10Z</time></trkpt><trkpt lat="51.04686673639534" lon="2.3920033849092546"><ele>8.0</ele><time>2026-04-06T17:24:12Z</time></trkpt><trkpt lat="51.046837560569024" lon="2.391872676585929"><ele>8.0</ele><time>2026-04-06T17:24:14Z</time></trkpt><trkpt lat="51.04680227163557" lon="2.3917507155802475"><ele>8.0</ele><time>2026-04-06T17:24:15.999Z</time></trkpt><trkpt lat="51.04677500697872" lon="2.391635111465521"><ele>7.999999999999999</ele><time>2026-04-06T17:24:17.999Z</time></trkpt><trkpt lat="51.04675117695443" lon="2.3915071013477336"><ele>8.0</ele><time>2026-04-06T17:24:19.999Z</time></trkpt><trkpt lat="51.04671514071582" lon="2.3913748782399673"><ele>8.166666666666666</ele><time>2026-04-06T17:24:21.999Z</time></trkpt><trkpt lat="51.04668440812088" lon="2.3912406218294104"><ele>8.333333333333332</ele><time>2026-04-06T17:24:23.999Z</time></trkpt><trkpt lat="51.04665108078808" lon="2.3911209743900383"><ele>8.5</ele><time>2026-04-06T17:24:25.999Z</time></trkpt><trkpt lat="51.04661839829431" lon="2.390996504488136"><ele>8.666666666666666</ele><time>2026-04-06T17:24:27.999Z</time></trkpt><trkpt lat="51.046603371109086" lon="2.3908918099157996"><ele>8.833333333333334</ele><time>2026-04-06T17:24:30.999Z</time></trkpt><trkpt lat="51.0465750670873" lon="2.3907747055393163"><ele>9.0</ele><time>2026-04-06T17:24:32.999Z</time></trkpt><trkpt lat="51.04653726643593" lon="2.390647340208935"><ele>8.833333333333334</ele><time>2026-04-06T17:24:34.999Z</time></trkpt><trkpt lat="51.04650942651087" lon="2.390499624062292"><ele>8.666666666666666</ele><time>2026-04-06T17:24:36.999Z</time></trkpt><trkpt lat="51.04647972536408" lon="2.3903633967754065"><ele>8.5</ele><time>2026-04-06T17:24:38.999Z</time></trkpt><trkpt lat="51.04643361560599" lon="2.3902634653226786"><ele>8.333333333333332</ele><time>2026-04-06T17:24:40.999Z</time></trkpt><trkpt lat="51.046405643039726" lon="2.390144298542557"><ele>8.166666666666666</ele><time>2026-04-06T17:24:42.999Z</time></trkpt><trkpt lat="51.0463751803786" lon="2.390037845437139"><ele>8.0</ele><time>2026-04-06T17:24:44.999Z</time></trkpt><trkpt lat="51.04633863317042" lon="2.3899294476841706"><ele>7.999999999999999</ele><time>2026-04-06T17:24:46.999Z</time></trkpt><trkpt lat="51.0463048095068" lon="2.389814961594573"><ele>8.0</ele><time>2026-04-06T17:24:48.999Z</time></trkpt><trkpt lat="51.04626926180195" lon="2.389677946030232"><ele>8.0</ele><time>2026-04-06T17:24:50.999Z</time></trkpt><trkpt lat="51.0462352260534" lon="2.3895562581389673"><ele>8.0</ele><time>2026-04-06T17:24:52.999Z</time></trkpt><trkpt lat="51.046201178745676" lon="2.3894613991538485"><ele>7.999999999999999</ele><time>2026-04-06T17:24:54.999Z</time></trkpt><trkpt lat="51.04616997167871" lon="2.3893696101317716"><ele>8.0</ele><time>2026-04-06T17:24:56.999Z</time></trkpt><trkpt lat="51.046156538316055" lon="2.389231882452853"><ele>7.999999999999999</ele><time>2026-04-06T17:24:59.999Z</time></trkpt><trkpt lat="51.04615928750322" lon="2.38912562649082"><ele>8.0</ele><time>2026-04-06T17:25:01.999Z</time></trkpt><trkpt lat="51.04612326608275" lon="2.389002154778077"><ele>8.0</ele><time>2026-04-06T17:25:04.999Z</time></trkpt><trkpt lat="51.04612549490175" lon="2.388899649737695"><ele>8.0</ele><time>2026-04-06T17:25:07.999Z</time></trkpt><trkpt lat="51.046095383370414" lon="2.3890492827520347"><ele>7.999999999999999</ele><time>2026-04-06T17:25:17.999Z</time></trkpt><trkpt lat="51.04601791368472" lon="2.3890903101187173"><ele>8.0</ele><time>2026-04-06T17:25:20.999Z</time></trkpt><trkpt lat="51.04594538976071" lon="2.3889601101917117"><ele>7.999999999999999</ele><time>2026-04-06T17:25:23.999Z</time></trkpt><trkpt lat="51.04594659356502" lon="2.388859161023751"><ele>8.0</ele><time>2026-04-06T17:25:27.999Z</time></trkpt><trkpt lat="51.04593281891075" lon="2.3887583164662365"><ele>8.0</ele><time>2026-04-06T17:25:33Z</time></trkpt><trkpt lat="51.04609445243521" lon="2.3887174785989465"><ele>8.0</ele><time>2026-04-06T17:26:53.999Z</time></trkpt><trkpt lat="51.04606718208815" lon="2.3885936400802277"><ele>7.999999999999999</ele><time>2026-04-06T17:27:17.999Z</time></trkpt><trkpt lat="51.04605060710632" lon="2.388482655457008"><ele>8.0</ele><time>2026-04-06T17:27:20.999Z</time></trkpt><trkpt lat="51.04601137792283" lon="2.3884010853937303"><ele>8.142857142857142</ele><time>2026-04-06T17:27:22.999Z</time></trkpt><trkpt lat="51.04594573188442" lon="2.388347212718323"><ele>8.285714285714285</ele><time>2026-04-06T17:27:24.999Z</time></trkpt><trkpt lat="51.04588036392348" lon="2.388324349466368"><ele>8.428571428571429</ele><time>2026-04-06T17:27:30.999Z</time></trkpt><trkpt lat="51.04594649889311" lon="2.388249108989359"><ele>8.571428571428571</ele><time>2026-04-06T17:27:49Z</time></trkpt><trkpt lat="51.045914182602765" lon="2.388153739961232"><ele>8.714285714285715</ele><time>2026-04-06T17:28:15Z</time></trkpt><trkpt lat="51.04589607979607" lon="2.3880386750616296"><ele>8.857142857142858</ele><time>2026-04-06T17:28:17Z</time></trkpt><trkpt lat="51.04587511541631" lon="2.387939811866294"><ele>9.0</ele><time>2026-04-06T17:28:18Z</time></trkpt><trkpt lat="51.0458540817409" lon="2.3878199959697732"><ele>8.8</ele><time>2026-04-06T17:28:20Z</time></trkpt><trkpt lat="51.04583307059749" lon="2.387724791902945"><ele>8.600000000000001</ele><time>2026-04-06T17:28:24Z</time></trkpt><trkpt lat="51.045826745602" lon="2.3876136235841696"><ele>8.4</ele><time>2026-04-06T17:28:27Z</time></trkpt><trkpt lat="51.04578021761669" lon="2.3874325601053608"><ele>8.200000000000001</ele><time>2026-04-06T17:28:30Z</time></trkpt><trkpt lat="51.04575492309955" lon="2.387223738368454"><ele>8.0</ele><time>2026-04-06T17:28:31.999Z</time></trkpt><trkpt lat="51.04572653055591" lon="2.3870481911796153"><ele>7.999999999999999</ele><time>2026-04-06T17:28:33.999Z</time></trkpt><trkpt lat="51.04569007334998" lon="2.3868998673896544"><ele>8.0</ele><time>2026-04-06T17:28:35.999Z</time></trkpt><trkpt lat="51.04565377798904" lon="2.386764783197467"><ele>8.0</ele><time>2026-04-06T17:28:37.999Z</time></trkpt><trkpt lat="51.04560785821415" lon="2.3866239354159005"><ele>8.0</ele><time>2026-04-06T17:28:39.999Z</time></trkpt><trkpt lat="51.04559304320446" lon="2.38650873383559"><ele>7.999999999999999</ele><time>2026-04-06T17:28:41.999Z</time></trkpt><trkpt lat="51.04556375820789" lon="2.386385328793653"><ele>8.0</ele><time>2026-04-06T17:28:43.999Z</time></trkpt><trkpt lat="51.045542744963385" lon="2.3862536042651765"><ele>7.666666666666666</ele><time>2026-04-06T17:28:45.999Z</time></trkpt><trkpt lat="51.04551213658896" lon="2.3861007545769914"><ele>7.333333333333333</ele><time>2026-04-06T17:28:48.999Z</time></trkpt><trkpt lat="51.045487023092974" lon="2.3859798249104713"><ele>7.0</ele><time>2026-04-06T17:28:50.999Z</time></trkpt><trkpt lat="51.04546169726325" lon="2.3858764659614935"><ele>6.666666666666666</ele><time>2026-04-06T17:28:52.999Z</time></trkpt><trkpt lat="51.04540763922959" lon="2.385782018066519"><ele>6.333333333333333</ele><time>2026-04-06T17:28:54.999Z</time></trkpt><trkpt lat="51.04535064781989" lon="2.3856978612005793"><ele>6.0</ele><time>2026-04-06T17:28:56.999Z</time></trkpt><trkpt lat="51.045297271398226" lon="2.385617619433366"><ele>6.0</ele><time>2026-04-06T17:28:58.999Z</time></trkpt><trkpt lat="51.04523226774397" lon="2.3855285601260467"><ele>6.0</ele><time>2026-04-06T17:29:00.999Z</time></trkpt><trkpt lat="51.045167311462606" lon="2.385443649593039"><ele>6.0</ele><time>2026-04-06T17:29:02.999Z</time></trkpt><trkpt lat="51.04510763229769" lon="2.3853355975341297"><ele>6.0</ele><time>2026-04-06T17:29:04.999Z</time></trkpt><trkpt lat="51.04505193331344" lon="2.3852265185522357"><ele>6.0</ele><time>2026-04-06T17:29:06.999Z</time></trkpt><trkpt lat="51.044992258718395" lon="2.3851056631743863"><ele>6.0</ele><time>2026-04-06T17:29:08.999Z</time></trkpt><trkpt lat="51.04493423877108" lon="2.3849873111476176"><ele>6.166666666666667</ele><time>2026-04-06T17:29:10.999Z</time></trkpt><trkpt lat="51.044872342834246" lon="2.384880885036919"><ele>6.333333333333334</ele><time>2026-04-06T17:29:13.999Z</time></trkpt><trkpt lat="51.04482993338638" lon="2.384797636338479"><ele>6.5</ele><time>2026-04-06T17:29:15.999Z</time></trkpt><trkpt lat="51.04478101452679" lon="2.3846592526811"><ele>6.666666666666667</ele><time>2026-04-06T17:29:18.999Z</time></trkpt><trkpt lat="51.044742376862615" lon="2.384574787714605"><ele>6.833333333333334</ele><time>2026-04-06T17:29:20.999Z</time></trkpt><trkpt lat="51.04465558038396" lon="2.3844455642283267"><ele>7.0</ele><time>2026-04-06T17:29:22.999Z</time></trkpt><trkpt lat="51.04459202064803" lon="2.384322210642322"><ele>7.0</ele><time>2026-04-06T17:29:24.999Z</time></trkpt><trkpt lat="51.044510712447035" lon="2.384200055084574"><ele>6.999999999999999</ele><time>2026-04-06T17:29:26.999Z</time></trkpt><trkpt lat="51.0444368229555" lon="2.384081704815816"><ele>6.999999999999999</ele><time>2026-04-06T17:29:28.999Z</time></trkpt><trkpt lat="51.04436071670324" lon="2.383973405347851"><ele>7.0</ele><time>2026-04-06T17:29:30.999Z</time></trkpt><trkpt lat="51.04428540255431" lon="2.383861058098866"><ele>7.0</ele><time>2026-04-06T17:29:32.999Z</time></trkpt><trkpt lat="51.04421835863644" lon="2.3837852759412193"><ele>7.000000000000001</ele><time>2026-04-06T17:29:35.999Z</time></trkpt><trkpt lat="51.04415659718416" lon="2.3837124918116293"><ele>7.0</ele><time>2026-04-06T17:30:02Z</time></trkpt><trkpt lat="51.044093480824806" lon="2.3836668779108225"><ele>7.0</ele><time>2026-04-06T17:30:04Z</time></trkpt><trkpt lat="51.0440214211368" lon="2.3835923158995374"><ele>7.0</ele><time>2026-04-06T17:30:06Z</time></trkpt><trkpt lat="51.043941760618516" lon="2.383522972394081"><ele>7.000000000000001</ele><time>2026-04-06T17:30:08Z</time></trkpt><trkpt lat="51.04386282503988" lon="2.3834454327282066"><ele>7.0</ele><time>2026-04-06T17:30:10Z</time></trkpt><trkpt lat="51.04376830754042" lon="2.3833805376102544"><ele>7.0</ele><time>2026-04-06T17:30:12Z</time></trkpt><trkpt lat="51.0436716813489" lon="2.3833031266465183"><ele>6.999999999999999</ele><time>2026-04-06T17:30:14Z</time></trkpt><trkpt lat="51.04357353264856" lon="2.3832206691481193"><ele>6.999999999999999</ele><time>2026-04-06T17:30:16Z</time></trkpt><trkpt lat="51.04348491472479" lon="2.383123635301985"><ele>7.0</ele><time>2026-04-06T17:30:18Z</time></trkpt><trkpt lat="51.043437283375226" lon="2.3829935886106397"><ele>7.0</ele><time>2026-04-06T17:30:20Z</time></trkpt><trkpt lat="51.04346155316348" lon="2.382874324345406"><ele>7.000000000000001</ele><time>2026-04-06T17:30:22Z</time></trkpt><trkpt lat="51.04351389827833" lon="2.382772061428869"><ele>7.0</ele><time>2026-04-06T17:30:24Z</time></trkpt><trkpt lat="51.04354441794372" lon="2.382664774873427"><ele>7.0</ele><time>2026-04-06T17:30:26Z</time></trkpt><trkpt lat="51.043586794437914" lon="2.3825447025470203"><ele>7.0</ele><time>2026-04-06T17:30:28Z</time></trkpt><trkpt lat="51.04361078853254" lon="2.3824137925854596"><ele>7.000000000000001</ele><time>2026-04-06T17:30:30Z</time></trkpt><trkpt lat="51.04365782438669" lon="2.382321018731165"><ele>7.0</ele><time>2026-04-06T17:30:32Z</time></trkpt><trkpt lat="51.04373582731487" lon="2.382258207003333"><ele>7.0</ele><time>2026-04-06T17:30:33.999Z</time></trkpt><trkpt lat="51.043807100235455" lon="2.382187050903881"><ele>6.999999999999999</ele><time>2026-04-06T17:30:35.999Z</time></trkpt><trkpt lat="51.04391317463302" lon="2.3821070267109774"><ele>6.999999999999999</ele><time>2026-04-06T17:30:37.999Z</time></trkpt><trkpt lat="51.044005415071894" lon="2.3820011464743573"><ele>7.0</ele><time>2026-04-06T17:30:39.999Z</time></trkpt><trkpt lat="51.04406475609435" lon="2.381886043950662"><ele>7.0</ele><time>2026-04-06T17:30:41.999Z</time></trkpt><trkpt lat="51.04406637001831" lon="2.3817543176403113"><ele>6.8</ele><time>2026-04-06T17:30:43.999Z</time></trkpt><trkpt lat="51.043999493296326" lon="2.3816346091244793"><ele>6.6</ele><time>2026-04-06T17:30:45.999Z</time></trkpt><trkpt lat="51.04393273383592" lon="2.3815451856777567"><ele>6.3999999999999995</ele><time>2026-04-06T17:30:47.999Z</time></trkpt><trkpt lat="51.04387165408181" lon="2.3814559198484893"><ele>6.199999999999999</ele><time>2026-04-06T17:30:49.999Z</time></trkpt><trkpt lat="51.04383224227379" lon="2.3813162622166875"><ele>6.0</ele><time>2026-04-06T17:30:51.999Z</time></trkpt><trkpt lat="51.04376971438723" lon="2.3811517544117757"><ele>6.0</ele><time>2026-04-06T17:30:53.999Z</time></trkpt><trkpt lat="51.04371422231954" lon="2.38103537987523"><ele>6.0</ele><time>2026-04-06T17:30:55.999Z</time></trkpt><trkpt lat="51.043656054139134" lon="2.3809237507100796"><ele>6.0</ele><time>2026-04-06T17:30:57.999Z</time></trkpt><trkpt lat="51.04360811805436" lon="2.380825112993987"><ele>6.0</ele><time>2026-04-06T17:30:59.999Z</time></trkpt><trkpt lat="51.04354654975171" lon="2.3807704690383305"><ele>6.0</ele><time>2026-04-06T17:31:01.999Z</time></trkpt><trkpt lat="51.04348831816713" lon="2.3806672215112035"><ele>6.0</ele><time>2026-04-06T17:31:03.999Z</time></trkpt><trkpt lat="51.043432744166694" lon="2.3805297406493646"><ele>5.833333333333333</ele><time>2026-04-06T17:31:05.999Z</time></trkpt><trkpt lat="51.0433720528436" lon="2.3804278334973388"><ele>5.666666666666667</ele><time>2026-04-06T17:31:07.999Z</time></trkpt><trkpt lat="51.04331921481967" lon="2.380325813119934"><ele>5.5</ele><time>2026-04-06T17:31:09.999Z</time></trkpt><trkpt lat="51.04326792033961" lon="2.380235591107483"><ele>5.333333333333334</ele><time>2026-04-06T17:31:11.999Z</time></trkpt><trkpt lat="51.04320884252466" lon="2.3801317951980523"><ele>5.166666666666667</ele><time>2026-04-06T17:31:13.999Z</time></trkpt><trkpt lat="51.04315299590213" lon="2.3800337420996196"><ele>5.0</ele><time>2026-04-06T17:31:15.999Z</time></trkpt><trkpt lat="51.043100132487886" lon="2.379884410744879"><ele>5.4</ele><time>2026-04-06T17:31:17.999Z</time></trkpt><trkpt lat="51.043044172384775" lon="2.3797648057477057"><ele>5.8</ele><time>2026-04-06T17:31:19.999Z</time></trkpt><trkpt lat="51.04298935401792" lon="2.3796414232738097"><ele>6.199999999999999</ele><time>2026-04-06T17:31:22.999Z</time></trkpt><trkpt lat="51.04293620936171" lon="2.379555840295395"><ele>6.6</ele><time>2026-04-06T17:31:24.999Z</time></trkpt><trkpt lat="51.04287213818467" lon="2.379433928326574"><ele>7.0</ele><time>2026-04-06T17:31:26.999Z</time></trkpt><trkpt lat="51.04281320839418" lon="2.3792693672657257"><ele>7.166666666666667</ele><time>2026-04-06T17:31:28.999Z</time></trkpt><trkpt lat="51.04277119258089" lon="2.379160296193744"><ele>7.333333333333334</ele><time>2026-04-06T17:31:30.999Z</time></trkpt><trkpt lat="51.04272250401884" lon="2.379025212428274"><ele>7.5</ele><time>2026-04-06T17:31:32.999Z</time></trkpt><trkpt lat="51.0426780156468" lon="2.3789151665661556"><ele>7.666666666666666</ele><time>2026-04-06T17:31:34.999Z</time></trkpt><trkpt lat="51.04262476344393" lon="2.3788132258189427"><ele>7.833333333333333</ele><time>2026-04-06T17:31:36.999Z</time></trkpt><trkpt lat="51.04257021643683" lon="2.3786927449521214"><ele>8.0</ele><time>2026-04-06T17:31:38.999Z</time></trkpt><trkpt lat="51.04252824501875" lon="2.3786022629054564"><ele>7.666666666666666</ele><time>2026-04-06T17:31:40.998Z</time></trkpt><trkpt lat="51.04249714646441" lon="2.3784931618280583"><ele>7.333333333333333</ele><time>2026-04-06T17:31:42.998Z</time></trkpt><trkpt lat="51.04242109133974" lon="2.3783855311024102"><ele>7.0</ele><time>2026-04-06T17:31:44.998Z</time></trkpt><trkpt lat="51.04235252554962" lon="2.378390374203556"><ele>6.666666666666666</ele><time>2026-04-06T17:31:45.998Z</time></trkpt><trkpt lat="51.04227116793705" lon="2.3783738815293587"><ele>6.333333333333333</ele><time>2026-04-06T17:31:46.998Z</time></trkpt><trkpt lat="51.042202246781656" lon="2.3784509379189993"><ele>6.0</ele><time>2026-04-06T17:31:49Z</time></trkpt><trkpt lat="51.04214654414929" lon="2.3785159738686676"><ele>5.75</ele><time>2026-04-06T17:31:52Z</time></trkpt><trkpt lat="51.04197642129165" lon="2.3783745250558197"><ele>5.5</ele><time>2026-04-06T17:32:19Z</time></trkpt><trkpt lat="51.042035052643236" lon="2.378417973246377"><ele>5.25</ele><time>2026-04-06T17:32:39.999Z</time></trkpt><trkpt lat="51.04207256348002" lon="2.3785269632957675"><ele>5.0</ele><time>2026-04-06T17:32:40.999Z</time></trkpt><trkpt lat="51.04209474063383" lon="2.3789074914073645"><ele>5.0</ele><time>2026-04-06T17:32:49.999Z</time></trkpt><trkpt lat="51.04206880026593" lon="2.3790463168342177"><ele>5.0</ele><time>2026-04-06T17:32:52.999Z</time></trkpt><trkpt lat="51.04211721652739" lon="2.3789474798379"><ele>5.0</ele><time>2026-04-06T17:33:08.999Z</time></trkpt><trkpt lat="51.04211143035065" lon="2.378826487163502"><ele>5.0</ele><time>2026-04-06T17:33:17.999Z</time></trkpt><trkpt lat="51.04211284162238" lon="2.37895013789564"><ele>5.0</ele><time>2026-04-06T17:33:40.999Z</time></trkpt><trkpt lat="51.04212087438845" lon="2.3788458302465005"><ele>5.0</ele><time>2026-04-06T17:35:08.999Z</time></trkpt><trkpt lat="51.04213647846185" lon="2.3789580393092953"><ele>5.0</ele><time>2026-04-06T17:35:21.999Z</time></trkpt><trkpt lat="51.0421176200885" lon="2.3790733218141336"><ele>5.0</ele><time>2026-04-06T17:35:24.999Z</time></trkpt><trkpt lat="51.04190540533676" lon="2.3788412839535784"><ele>5.0</ele><time>2026-04-06T17:36:44.518Z</time></trkpt><trkpt lat="51.04200283015637" lon="2.37881689345301"><ele>5.0</ele><time>2026-04-06T17:46:44Z</time></trkpt><trkpt lat="51.04196975257124" lon="2.3786932466730804"><ele>5.0</ele><time>2026-04-06T17:46:46Z</time></trkpt><trkpt lat="51.04193265588881" lon="2.378776493264152"><ele>5.0</ele><time>2026-04-06T17:47:20.999Z</time></trkpt></trkseg></trk></gpx>